<?xml version="1.0" encoding="UTF-8" standalone="no" ?>
<gpx xmlns="http://www.topografix.com/GPX/1/1" xmlns:xsi="http://www.w3.org/2001/XMLSchema-instance" xsi:schemaLocation="http://www.topografix.com/GPX/1/1 http://www.topografix.com/GPX/1/1/gpx.xsd" version="1.1" creator="VisuGPX - https://www.visugpx.com">
  <metadata>
    <name>Montouvrard-lac des tavernes-montouvrard</name>
    <desc><![CDATA[File with points/tracks from Locus Map/3.49.1]]></desc>
  </metadata>
  <trk>
    <name><![CDATA[2020-12-18 11:57:51]]></name>
    <desc><![CDATA[Tavernes]]></desc>
    <extensions>
      <line xmlns="http://www.topografix.com/GPX/gpx_style/0/2">
        <color>0000FF</color>
        <opacity>0.59</opacity>
        <width>6.0</width>
      </line>
    </extensions>
    <trkseg>
      <trkpt lat="45.37975" lon="6.07497">
        <ele>851.21</ele>
        <time>2020-12-18T10:57:54.000Z</time>
      </trkpt>
      <trkpt lat="45.37955" lon="6.07498">
        <ele>855.83</ele>
        <time>2020-12-18T10:58:04.000Z</time>
      </trkpt>
      <trkpt lat="45.37941" lon="6.07499">
        <ele>858.74</ele>
        <time>2020-12-18T10:58:14.000Z</time>
      </trkpt>
      <trkpt lat="45.37931" lon="6.075">
        <ele>864.75</ele>
        <time>2020-12-18T10:58:24.000Z</time>
      </trkpt>
      <trkpt lat="45.37926" lon="6.07508">
        <ele>864.88</ele>
        <time>2020-12-18T10:58:34.000Z</time>
      </trkpt>
      <trkpt lat="45.37929" lon="6.07524">
        <ele>863.67</ele>
        <time>2020-12-18T10:58:44.000Z</time>
      </trkpt>
      <trkpt lat="45.37926" lon="6.0754">
        <ele>861.79</ele>
        <time>2020-12-18T10:58:54.000Z</time>
      </trkpt>
      <trkpt lat="45.3793" lon="6.07553">
        <ele>860.01</ele>
        <time>2020-12-18T10:59:04.000Z</time>
      </trkpt>
      <trkpt lat="45.37942" lon="6.07569">
        <ele>862.83</ele>
        <time>2020-12-18T10:59:14.000Z</time>
      </trkpt>
      <trkpt lat="45.37948" lon="6.07589">
        <ele>866.7</ele>
        <time>2020-12-18T10:59:24.000Z</time>
      </trkpt>
      <trkpt lat="45.3795" lon="6.07604">
        <ele>866.76</ele>
        <time>2020-12-18T10:59:34.000Z</time>
      </trkpt>
      <trkpt lat="45.37956" lon="6.07617">
        <ele>871.3</ele>
        <time>2020-12-18T10:59:44.000Z</time>
      </trkpt>
      <trkpt lat="45.37957" lon="6.07626">
        <ele>870.61</ele>
        <time>2020-12-18T10:59:54.000Z</time>
      </trkpt>
      <trkpt lat="45.37957" lon="6.07645">
        <ele>867.56</ele>
        <time>2020-12-18T11:00:04.000Z</time>
      </trkpt>
      <trkpt lat="45.37954" lon="6.07661">
        <ele>865.71</ele>
        <time>2020-12-18T11:00:14.000Z</time>
      </trkpt>
      <trkpt lat="45.37956" lon="6.07661">
        <ele>868.5</ele>
        <time>2020-12-18T11:00:24.000Z</time>
      </trkpt>
      <trkpt lat="45.37952" lon="6.07662">
        <ele>869.44</ele>
        <time>2020-12-18T11:00:34.000Z</time>
      </trkpt>
      <trkpt lat="45.37948" lon="6.07663">
        <ele>872.33</ele>
        <time>2020-12-18T11:00:44.000Z</time>
      </trkpt>
      <trkpt lat="45.37935" lon="6.07668">
        <ele>877.2</ele>
        <time>2020-12-18T11:00:54.000Z</time>
      </trkpt>
      <trkpt lat="45.37914" lon="6.07675">
        <ele>877.72</ele>
        <time>2020-12-18T11:01:04.000Z</time>
      </trkpt>
      <trkpt lat="45.379" lon="6.0768">
        <ele>881.79</ele>
        <time>2020-12-18T11:01:14.000Z</time>
      </trkpt>
      <trkpt lat="45.37892" lon="6.07681">
        <ele>886.85</ele>
        <time>2020-12-18T11:01:24.000Z</time>
      </trkpt>
      <trkpt lat="45.37885" lon="6.07681">
        <ele>882.52</ele>
        <time>2020-12-18T11:01:34.000Z</time>
      </trkpt>
      <trkpt lat="45.37883" lon="6.07688">
        <ele>881.51</ele>
        <time>2020-12-18T11:01:44.000Z</time>
      </trkpt>
      <trkpt lat="45.37878" lon="6.07695">
        <ele>883.07</ele>
        <time>2020-12-18T11:01:54.000Z</time>
      </trkpt>
      <trkpt lat="45.37872" lon="6.07689">
        <ele>885.34</ele>
        <time>2020-12-18T11:02:04.000Z</time>
      </trkpt>
      <trkpt lat="45.37867" lon="6.0769">
        <ele>885.36</ele>
        <time>2020-12-18T11:02:14.000Z</time>
      </trkpt>
      <trkpt lat="45.37865" lon="6.07692">
        <ele>884.84</ele>
        <time>2020-12-18T11:02:43.000Z</time>
      </trkpt>
      <trkpt lat="45.37853" lon="6.0773">
        <ele>885.31</ele>
        <time>2020-12-18T11:03:02.000Z</time>
      </trkpt>
      <trkpt lat="45.37837" lon="6.07738">
        <ele>891.09</ele>
        <time>2020-12-18T11:03:12.000Z</time>
      </trkpt>
      <trkpt lat="45.37832" lon="6.07746">
        <ele>892.85</ele>
        <time>2020-12-18T11:03:22.000Z</time>
      </trkpt>
      <trkpt lat="45.3783" lon="6.07745">
        <ele>892.42</ele>
        <time>2020-12-18T11:03:32.000Z</time>
      </trkpt>
      <trkpt lat="45.37813" lon="6.07751">
        <ele>886.35</ele>
        <time>2020-12-18T11:03:42.000Z</time>
      </trkpt>
      <trkpt lat="45.37798" lon="6.07765">
        <ele>889.33</ele>
        <time>2020-12-18T11:03:52.000Z</time>
      </trkpt>
      <trkpt lat="45.3779" lon="6.07772">
        <ele>893.91</ele>
        <time>2020-12-18T11:04:02.000Z</time>
      </trkpt>
      <trkpt lat="45.3778" lon="6.07774">
        <ele>897.53</ele>
        <time>2020-12-18T11:04:12.000Z</time>
      </trkpt>
      <trkpt lat="45.37775" lon="6.07768">
        <ele>900.13</ele>
        <time>2020-12-18T11:04:22.000Z</time>
      </trkpt>
      <trkpt lat="45.37767" lon="6.07771">
        <ele>897.92</ele>
        <time>2020-12-18T11:04:32.000Z</time>
      </trkpt>
      <trkpt lat="45.37767" lon="6.07772">
        <ele>899.12</ele>
        <time>2020-12-18T11:04:42.000Z</time>
      </trkpt>
      <trkpt lat="45.37766" lon="6.07771">
        <ele>898.57</ele>
        <time>2020-12-18T11:04:52.000Z</time>
      </trkpt>
      <trkpt lat="45.37768" lon="6.0777">
        <ele>900.75</ele>
        <time>2020-12-18T11:05:33.000Z</time>
      </trkpt>
      <trkpt lat="45.37754" lon="6.0768">
        <ele>918.57</ele>
        <time>2020-12-18T11:06:11.000Z</time>
      </trkpt>
      <trkpt lat="45.3773" lon="6.07687">
        <ele>924.74</ele>
        <time>2020-12-18T11:06:57.000Z</time>
      </trkpt>
      <trkpt lat="45.37735" lon="6.07692">
        <ele>922.93</ele>
        <time>2020-12-18T11:07:09.000Z</time>
      </trkpt>
      <trkpt lat="45.3772" lon="6.07718">
        <ele>926.79</ele>
        <time>2020-12-18T11:07:30.000Z</time>
      </trkpt>
      <trkpt lat="45.37716" lon="6.0773">
        <ele>929.92</ele>
        <time>2020-12-18T11:07:40.000Z</time>
      </trkpt>
      <trkpt lat="45.37713" lon="6.07749">
        <ele>942.74</ele>
        <time>2020-12-18T11:07:50.000Z</time>
      </trkpt>
      <trkpt lat="45.37707" lon="6.07763">
        <ele>938.86</ele>
        <time>2020-12-18T11:08:00.000Z</time>
      </trkpt>
      <trkpt lat="45.37703" lon="6.07771">
        <ele>934.98</ele>
        <time>2020-12-18T11:08:10.000Z</time>
      </trkpt>
      <trkpt lat="45.37701" lon="6.07769">
        <ele>930.51</ele>
        <time>2020-12-18T11:08:20.000Z</time>
      </trkpt>
      <trkpt lat="45.3769" lon="6.07763">
        <ele>930.62</ele>
        <time>2020-12-18T11:08:30.000Z</time>
      </trkpt>
      <trkpt lat="45.37695" lon="6.07747">
        <ele>930.21</ele>
        <time>2020-12-18T11:08:40.000Z</time>
      </trkpt>
      <trkpt lat="45.37698" lon="6.07733">
        <ele>926.81</ele>
        <time>2020-12-18T11:08:50.000Z</time>
      </trkpt>
      <trkpt lat="45.37713" lon="6.07693">
        <ele>925.79</ele>
        <time>2020-12-18T11:09:38.000Z</time>
      </trkpt>
      <trkpt lat="45.37721" lon="6.0768">
        <ele>930.03</ele>
        <time>2020-12-18T11:09:48.000Z</time>
      </trkpt>
      <trkpt lat="45.37726" lon="6.07654">
        <ele>937.66</ele>
        <time>2020-12-18T11:09:58.000Z</time>
      </trkpt>
      <trkpt lat="45.37732" lon="6.07636">
        <ele>936.53</ele>
        <time>2020-12-18T11:10:08.000Z</time>
      </trkpt>
      <trkpt lat="45.37737" lon="6.0762">
        <ele>934.4</ele>
        <time>2020-12-18T11:10:18.000Z</time>
      </trkpt>
      <trkpt lat="45.37739" lon="6.07598">
        <ele>943.69</ele>
        <time>2020-12-18T11:10:28.000Z</time>
      </trkpt>
      <trkpt lat="45.37737" lon="6.07589">
        <ele>950</ele>
        <time>2020-12-18T11:10:38.000Z</time>
      </trkpt>
      <trkpt lat="45.37732" lon="6.07594">
        <ele>951.47</ele>
        <time>2020-12-18T11:10:48.000Z</time>
      </trkpt>
      <trkpt lat="45.37728" lon="6.07585">
        <ele>958.21</ele>
        <time>2020-12-18T11:10:58.000Z</time>
      </trkpt>
      <trkpt lat="45.37725" lon="6.07577">
        <ele>959.33</ele>
        <time>2020-12-18T11:11:08.000Z</time>
      </trkpt>
      <trkpt lat="45.37725" lon="6.07576">
        <ele>958.25</ele>
        <time>2020-12-18T11:11:20.000Z</time>
      </trkpt>
      <trkpt lat="45.37724" lon="6.07573">
        <ele>958.81</ele>
        <time>2020-12-18T11:12:35.000Z</time>
      </trkpt>
      <trkpt lat="45.37712" lon="6.07567">
        <ele>961.92</ele>
        <time>2020-12-18T11:12:45.000Z</time>
      </trkpt>
      <trkpt lat="45.37701" lon="6.07564">
        <ele>964.82</ele>
        <time>2020-12-18T11:12:55.000Z</time>
      </trkpt>
      <trkpt lat="45.37692" lon="6.07561">
        <ele>966.25</ele>
        <time>2020-12-18T11:13:05.000Z</time>
      </trkpt>
      <trkpt lat="45.37685" lon="6.07555">
        <ele>964.14</ele>
        <time>2020-12-18T11:13:15.000Z</time>
      </trkpt>
      <trkpt lat="45.37681" lon="6.07548">
        <ele>966.64</ele>
        <time>2020-12-18T11:13:25.000Z</time>
      </trkpt>
      <trkpt lat="45.37672" lon="6.07543">
        <ele>965.89</ele>
        <time>2020-12-18T11:13:35.000Z</time>
      </trkpt>
      <trkpt lat="45.37661" lon="6.07536">
        <ele>964.3</ele>
        <time>2020-12-18T11:13:45.000Z</time>
      </trkpt>
      <trkpt lat="45.37655" lon="6.07531">
        <ele>968.3</ele>
        <time>2020-12-18T11:13:55.000Z</time>
      </trkpt>
      <trkpt lat="45.3765" lon="6.0752">
        <ele>970.88</ele>
        <time>2020-12-18T11:14:05.000Z</time>
      </trkpt>
      <trkpt lat="45.37645" lon="6.07517">
        <ele>973.07</ele>
        <time>2020-12-18T11:14:15.000Z</time>
      </trkpt>
      <trkpt lat="45.37636" lon="6.07515">
        <ele>973.64</ele>
        <time>2020-12-18T11:14:25.000Z</time>
      </trkpt>
      <trkpt lat="45.37628" lon="6.07511">
        <ele>976.43</ele>
        <time>2020-12-18T11:14:35.000Z</time>
      </trkpt>
      <trkpt lat="45.37623" lon="6.07502">
        <ele>976.42</ele>
        <time>2020-12-18T11:14:45.000Z</time>
      </trkpt>
      <trkpt lat="45.37616" lon="6.07492">
        <ele>978.91</ele>
        <time>2020-12-18T11:14:55.000Z</time>
      </trkpt>
      <trkpt lat="45.3762" lon="6.07491">
        <ele>980.44</ele>
        <time>2020-12-18T11:15:05.000Z</time>
      </trkpt>
      <trkpt lat="45.37618" lon="6.07489">
        <ele>979.56</ele>
        <time>2020-12-18T11:15:15.000Z</time>
      </trkpt>
      <trkpt lat="45.37617" lon="6.07488">
        <ele>980.28</ele>
        <time>2020-12-18T11:15:25.000Z</time>
      </trkpt>
      <trkpt lat="45.37616" lon="6.07487">
        <ele>982.45</ele>
        <time>2020-12-18T11:15:49.000Z</time>
      </trkpt>
      <trkpt lat="45.37604" lon="6.07475">
        <ele>987.44</ele>
        <time>2020-12-18T11:15:59.000Z</time>
      </trkpt>
      <trkpt lat="45.37601" lon="6.0746">
        <ele>988.14</ele>
        <time>2020-12-18T11:16:09.000Z</time>
      </trkpt>
      <trkpt lat="45.37595" lon="6.07447">
        <ele>983.99</ele>
        <time>2020-12-18T11:16:19.000Z</time>
      </trkpt>
      <trkpt lat="45.37596" lon="6.07454">
        <ele>983.93</ele>
        <time>2020-12-18T11:16:29.000Z</time>
      </trkpt>
      <trkpt lat="45.37596" lon="6.07461">
        <ele>986.39</ele>
        <time>2020-12-18T11:16:39.000Z</time>
      </trkpt>
      <trkpt lat="45.37593" lon="6.07468">
        <ele>990.82</ele>
        <time>2020-12-18T11:16:49.000Z</time>
      </trkpt>
      <trkpt lat="45.37585" lon="6.07472">
        <ele>994.59</ele>
        <time>2020-12-18T11:16:59.000Z</time>
      </trkpt>
      <trkpt lat="45.37578" lon="6.07473">
        <ele>996.61</ele>
        <time>2020-12-18T11:17:09.000Z</time>
      </trkpt>
      <trkpt lat="45.37563" lon="6.07475">
        <ele>992.42</ele>
        <time>2020-12-18T11:17:19.000Z</time>
      </trkpt>
      <trkpt lat="45.37558" lon="6.07479">
        <ele>997.15</ele>
        <time>2020-12-18T11:17:29.000Z</time>
      </trkpt>
      <trkpt lat="45.37559" lon="6.0749">
        <ele>994.68</ele>
        <time>2020-12-18T11:17:39.000Z</time>
      </trkpt>
      <trkpt lat="45.37554" lon="6.07492">
        <ele>992.65</ele>
        <time>2020-12-18T11:17:49.000Z</time>
      </trkpt>
      <trkpt lat="45.37542" lon="6.07484">
        <ele>993.27</ele>
        <time>2020-12-18T11:17:59.000Z</time>
      </trkpt>
      <trkpt lat="45.37533" lon="6.07493">
        <ele>994.08</ele>
        <time>2020-12-18T11:18:09.000Z</time>
      </trkpt>
      <trkpt lat="45.37523" lon="6.07513">
        <ele>1002.26</ele>
        <time>2020-12-18T11:18:19.000Z</time>
      </trkpt>
      <trkpt lat="45.37522" lon="6.0753">
        <ele>1002.12</ele>
        <time>2020-12-18T11:18:29.000Z</time>
      </trkpt>
      <trkpt lat="45.37519" lon="6.0755">
        <ele>1002.29</ele>
        <time>2020-12-18T11:18:39.000Z</time>
      </trkpt>
      <trkpt lat="45.37507" lon="6.07558">
        <ele>1008.49</ele>
        <time>2020-12-18T11:18:49.000Z</time>
      </trkpt>
      <trkpt lat="45.37494" lon="6.07586">
        <ele>1013.56</ele>
        <time>2020-12-18T11:18:59.000Z</time>
      </trkpt>
      <trkpt lat="45.37489" lon="6.07589">
        <ele>1012.37</ele>
        <time>2020-12-18T11:19:09.000Z</time>
      </trkpt>
      <trkpt lat="45.37495" lon="6.07604">
        <ele>1015.73</ele>
        <time>2020-12-18T11:19:19.000Z</time>
      </trkpt>
      <trkpt lat="45.37486" lon="6.07612">
        <ele>1013.16</ele>
        <time>2020-12-18T11:19:29.000Z</time>
      </trkpt>
      <trkpt lat="45.37494" lon="6.07623">
        <ele>1015.19</ele>
        <time>2020-12-18T11:19:39.000Z</time>
      </trkpt>
      <trkpt lat="45.37492" lon="6.07631">
        <ele>1017.26</ele>
        <time>2020-12-18T11:19:49.000Z</time>
      </trkpt>
      <trkpt lat="45.37487" lon="6.07639">
        <ele>1020.29</ele>
        <time>2020-12-18T11:19:59.000Z</time>
      </trkpt>
      <trkpt lat="45.37478" lon="6.07643">
        <ele>1021.24</ele>
        <time>2020-12-18T11:20:09.000Z</time>
      </trkpt>
      <trkpt lat="45.37465" lon="6.07649">
        <ele>1021.96</ele>
        <time>2020-12-18T11:20:19.000Z</time>
      </trkpt>
      <trkpt lat="45.37458" lon="6.07654">
        <ele>1022.74</ele>
        <time>2020-12-18T11:20:29.000Z</time>
      </trkpt>
      <trkpt lat="45.37457" lon="6.07655">
        <ele>1023.7</ele>
        <time>2020-12-18T11:20:39.000Z</time>
      </trkpt>
      <trkpt lat="45.37456" lon="6.07657">
        <ele>1023.11</ele>
        <time>2020-12-18T11:21:07.000Z</time>
      </trkpt>
      <trkpt lat="45.37443" lon="6.07674">
        <ele>1029.65</ele>
        <time>2020-12-18T11:21:17.000Z</time>
      </trkpt>
      <trkpt lat="45.37435" lon="6.07685">
        <ele>1031.79</ele>
        <time>2020-12-18T11:21:27.000Z</time>
      </trkpt>
      <trkpt lat="45.37434" lon="6.07685">
        <ele>1036</ele>
        <time>2020-12-18T11:21:37.000Z</time>
      </trkpt>
      <trkpt lat="45.37426" lon="6.07685">
        <ele>1035.85</ele>
        <time>2020-12-18T11:21:47.000Z</time>
      </trkpt>
      <trkpt lat="45.37424" lon="6.07686">
        <ele>1037.26</ele>
        <time>2020-12-18T11:21:57.000Z</time>
      </trkpt>
      <trkpt lat="45.37422" lon="6.07685">
        <ele>1038.46</ele>
        <time>2020-12-18T11:22:14.000Z</time>
      </trkpt>
      <trkpt lat="45.37416" lon="6.07696">
        <ele>1035.62</ele>
        <time>2020-12-18T11:22:24.000Z</time>
      </trkpt>
      <trkpt lat="45.37408" lon="6.07695">
        <ele>1032.54</ele>
        <time>2020-12-18T11:22:34.000Z</time>
      </trkpt>
      <trkpt lat="45.37407" lon="6.07694">
        <ele>1033.39</ele>
        <time>2020-12-18T11:22:44.000Z</time>
      </trkpt>
      <trkpt lat="45.37406" lon="6.07695">
        <ele>1033.71</ele>
        <time>2020-12-18T11:23:11.000Z</time>
      </trkpt>
      <trkpt lat="45.37396" lon="6.077">
        <ele>1037.09</ele>
        <time>2020-12-18T11:23:21.000Z</time>
      </trkpt>
      <trkpt lat="45.3739" lon="6.07705">
        <ele>1041.32</ele>
        <time>2020-12-18T11:23:31.000Z</time>
      </trkpt>
      <trkpt lat="45.37387" lon="6.077">
        <ele>1041.68</ele>
        <time>2020-12-18T11:23:41.000Z</time>
      </trkpt>
      <trkpt lat="45.37386" lon="6.07701">
        <ele>1041.96</ele>
        <time>2020-12-18T11:23:52.000Z</time>
      </trkpt>
      <trkpt lat="45.37368" lon="6.07703">
        <ele>1044.88</ele>
        <time>2020-12-18T11:24:02.000Z</time>
      </trkpt>
      <trkpt lat="45.37358" lon="6.07704">
        <ele>1038.89</ele>
        <time>2020-12-18T11:24:12.000Z</time>
      </trkpt>
      <trkpt lat="45.37354" lon="6.077">
        <ele>1038.98</ele>
        <time>2020-12-18T11:24:22.000Z</time>
      </trkpt>
      <trkpt lat="45.37351" lon="6.07703">
        <ele>1041.35</ele>
        <time>2020-12-18T11:24:32.000Z</time>
      </trkpt>
      <trkpt lat="45.3735" lon="6.07705">
        <ele>1043.39</ele>
        <time>2020-12-18T11:24:42.000Z</time>
      </trkpt>
      <trkpt lat="45.37349" lon="6.07708">
        <ele>1046.02</ele>
        <time>2020-12-18T11:24:52.000Z</time>
      </trkpt>
      <trkpt lat="45.37336" lon="6.07715">
        <ele>1061.54</ele>
        <time>2020-12-18T11:25:02.000Z</time>
      </trkpt>
      <trkpt lat="45.3733" lon="6.07723">
        <ele>1062.3</ele>
        <time>2020-12-18T11:25:14.000Z</time>
      </trkpt>
      <trkpt lat="45.37315" lon="6.07725">
        <ele>1062.01</ele>
        <time>2020-12-18T11:25:24.000Z</time>
      </trkpt>
      <trkpt lat="45.37304" lon="6.07732">
        <ele>1060.7</ele>
        <time>2020-12-18T11:25:34.000Z</time>
      </trkpt>
      <trkpt lat="45.37295" lon="6.07734">
        <ele>1063.37</ele>
        <time>2020-12-18T11:25:44.000Z</time>
      </trkpt>
      <trkpt lat="45.37294" lon="6.07737">
        <ele>1067.65</ele>
        <time>2020-12-18T11:25:54.000Z</time>
      </trkpt>
      <trkpt lat="45.37294" lon="6.07738">
        <ele>1068.52</ele>
        <time>2020-12-18T11:26:04.000Z</time>
      </trkpt>
      <trkpt lat="45.37293" lon="6.07739">
        <ele>1068.33</ele>
        <time>2020-12-18T11:26:15.000Z</time>
      </trkpt>
      <trkpt lat="45.37273" lon="6.07739">
        <ele>1060.29</ele>
        <time>2020-12-18T11:26:25.000Z</time>
      </trkpt>
      <trkpt lat="45.37263" lon="6.07753">
        <ele>1072.7</ele>
        <time>2020-12-18T11:26:35.000Z</time>
      </trkpt>
      <trkpt lat="45.37255" lon="6.07764">
        <ele>1077.35</ele>
        <time>2020-12-18T11:26:45.000Z</time>
      </trkpt>
      <trkpt lat="45.37213" lon="6.07772">
        <ele>1092.76</ele>
        <time>2020-12-18T11:27:27.000Z</time>
      </trkpt>
      <trkpt lat="45.3721" lon="6.07769">
        <ele>1090.77</ele>
        <time>2020-12-18T11:27:37.000Z</time>
      </trkpt>
      <trkpt lat="45.37201" lon="6.07753">
        <ele>1092.12</ele>
        <time>2020-12-18T11:27:52.000Z</time>
      </trkpt>
      <trkpt lat="45.37212" lon="6.0776">
        <ele>1092.54</ele>
        <time>2020-12-18T11:28:02.000Z</time>
      </trkpt>
      <trkpt lat="45.37214" lon="6.07761">
        <ele>1091.26</ele>
        <time>2020-12-18T11:28:12.000Z</time>
      </trkpt>
      <trkpt lat="45.37213" lon="6.07762">
        <ele>1092.39</ele>
        <time>2020-12-18T11:28:42.000Z</time>
      </trkpt>
      <trkpt lat="45.37211" lon="6.07759">
        <ele>1092.2</ele>
        <time>2020-12-18T11:29:43.000Z</time>
      </trkpt>
      <trkpt lat="45.37191" lon="6.07734">
        <ele>1106.69</ele>
        <time>2020-12-18T11:29:53.000Z</time>
      </trkpt>
      <trkpt lat="45.37181" lon="6.07715">
        <ele>1106.94</ele>
        <time>2020-12-18T11:30:03.000Z</time>
      </trkpt>
      <trkpt lat="45.3718" lon="6.07704">
        <ele>1105.4</ele>
        <time>2020-12-18T11:30:13.000Z</time>
      </trkpt>
      <trkpt lat="45.37176" lon="6.07703">
        <ele>1102.69</ele>
        <time>2020-12-18T11:30:23.000Z</time>
      </trkpt>
      <trkpt lat="45.37169" lon="6.07694">
        <ele>1102.44</ele>
        <time>2020-12-18T11:30:33.000Z</time>
      </trkpt>
      <trkpt lat="45.3716" lon="6.07686">
        <ele>1099.37</ele>
        <time>2020-12-18T11:30:43.000Z</time>
      </trkpt>
      <trkpt lat="45.37158" lon="6.07678">
        <ele>1095.58</ele>
        <time>2020-12-18T11:30:53.000Z</time>
      </trkpt>
      <trkpt lat="45.37156" lon="6.07678">
        <ele>1097.19</ele>
        <time>2020-12-18T11:31:03.000Z</time>
      </trkpt>
      <trkpt lat="45.37154" lon="6.07677">
        <ele>1097.41</ele>
        <time>2020-12-18T11:31:19.000Z</time>
      </trkpt>
      <trkpt lat="45.37147" lon="6.07675">
        <ele>1098.96</ele>
        <time>2020-12-18T11:31:29.000Z</time>
      </trkpt>
      <trkpt lat="45.37143" lon="6.07672">
        <ele>1101.51</ele>
        <time>2020-12-18T11:31:39.000Z</time>
      </trkpt>
      <trkpt lat="45.37142" lon="6.07671">
        <ele>1101.54</ele>
        <time>2020-12-18T11:31:51.000Z</time>
      </trkpt>
      <trkpt lat="45.37141" lon="6.07669">
        <ele>1103.09</ele>
        <time>2020-12-18T11:35:01.000Z</time>
      </trkpt>
      <trkpt lat="45.37134" lon="6.07658">
        <ele>1103.06</ele>
        <time>2020-12-18T11:35:11.000Z</time>
      </trkpt>
      <trkpt lat="45.37124" lon="6.07652">
        <ele>1102.41</ele>
        <time>2020-12-18T11:35:21.000Z</time>
      </trkpt>
      <trkpt lat="45.37122" lon="6.0765">
        <ele>1103.83</ele>
        <time>2020-12-18T11:35:31.000Z</time>
      </trkpt>
      <trkpt lat="45.3712" lon="6.07649">
        <ele>1103.93</ele>
        <time>2020-12-18T11:35:41.000Z</time>
      </trkpt>
      <trkpt lat="45.37115" lon="6.07642">
        <ele>1107.1</ele>
        <time>2020-12-18T11:35:51.000Z</time>
      </trkpt>
      <trkpt lat="45.37099" lon="6.07623">
        <ele>1107.09</ele>
        <time>2020-12-18T11:36:01.000Z</time>
      </trkpt>
      <trkpt lat="45.37086" lon="6.0761">
        <ele>1107.79</ele>
        <time>2020-12-18T11:36:11.000Z</time>
      </trkpt>
      <trkpt lat="45.37073" lon="6.07601">
        <ele>1108.81</ele>
        <time>2020-12-18T11:36:21.000Z</time>
      </trkpt>
      <trkpt lat="45.37073" lon="6.07603">
        <ele>1108.45</ele>
        <time>2020-12-18T11:36:31.000Z</time>
      </trkpt>
      <trkpt lat="45.37072" lon="6.07601">
        <ele>1109.56</ele>
        <time>2020-12-18T11:36:41.000Z</time>
      </trkpt>
      <trkpt lat="45.37071" lon="6.07599">
        <ele>1110.93</ele>
        <time>2020-12-18T11:36:59.000Z</time>
      </trkpt>
      <trkpt lat="45.37059" lon="6.07586">
        <ele>1115.99</ele>
        <time>2020-12-18T11:37:09.000Z</time>
      </trkpt>
      <trkpt lat="45.37051" lon="6.07567">
        <ele>1106.87</ele>
        <time>2020-12-18T11:37:50.000Z</time>
      </trkpt>
      <trkpt lat="45.3678" lon="6.07356">
        <ele>1108.27</ele>
        <time>2020-12-18T11:44:12.000Z</time>
      </trkpt>
      <trkpt lat="45.36673" lon="6.0745">
        <ele>1139.71</ele>
        <time>2020-12-18T11:48:12.000Z</time>
      </trkpt>
      <trkpt lat="45.36619" lon="6.07426">
        <ele>1153.13</ele>
        <time>2020-12-18T11:49:17.000Z</time>
      </trkpt>
      <trkpt lat="45.36619" lon="6.07428">
        <ele>1159.54</ele>
        <time>2020-12-18T11:49:27.000Z</time>
      </trkpt>
      <trkpt lat="45.36615" lon="6.07424">
        <ele>1164.3</ele>
        <time>2020-12-18T11:49:37.000Z</time>
      </trkpt>
      <trkpt lat="45.36613" lon="6.07424">
        <ele>1162.44</ele>
        <time>2020-12-18T11:49:51.000Z</time>
      </trkpt>
      <trkpt lat="45.36594" lon="6.0742">
        <ele>1167.54</ele>
        <time>2020-12-18T11:50:01.000Z</time>
      </trkpt>
      <trkpt lat="45.36415" lon="6.07393">
        <ele>1186.88</ele>
        <time>2020-12-18T11:52:30.000Z</time>
      </trkpt>
      <trkpt lat="45.36357" lon="6.07399">
        <ele>1190.6</ele>
        <time>2020-12-18T11:53:33.000Z</time>
      </trkpt>
      <trkpt lat="45.3635" lon="6.07391">
        <ele>1194.68</ele>
        <time>2020-12-18T11:53:44.000Z</time>
      </trkpt>
      <trkpt lat="45.36108" lon="6.07372">
        <ele>1240.83</ele>
        <time>2020-12-18T12:00:08.000Z</time>
      </trkpt>
      <trkpt lat="45.36023" lon="6.07374">
        <ele>1275.76</ele>
        <time>2020-12-18T12:02:11.000Z</time>
      </trkpt>
      <trkpt lat="45.36009" lon="6.07377">
        <ele>1276.79</ele>
        <time>2020-12-18T12:02:40.000Z</time>
      </trkpt>
      <trkpt lat="45.36" lon="6.07366">
        <ele>1274.84</ele>
        <time>2020-12-18T12:02:50.000Z</time>
      </trkpt>
      <trkpt lat="45.35986" lon="6.07361">
        <ele>1277.61</ele>
        <time>2020-12-18T12:03:08.000Z</time>
      </trkpt>
      <trkpt lat="45.3597" lon="6.07362">
        <ele>1278.58</ele>
        <time>2020-12-18T12:03:18.000Z</time>
      </trkpt>
      <trkpt lat="45.35968" lon="6.07363">
        <ele>1275.16</ele>
        <time>2020-12-18T12:03:28.000Z</time>
      </trkpt>
      <trkpt lat="45.35968" lon="6.07364">
        <ele>1276.37</ele>
        <time>2020-12-18T12:03:45.000Z</time>
      </trkpt>
      <trkpt lat="45.35966" lon="6.07364">
        <ele>1276.05</ele>
        <time>2020-12-18T12:04:11.000Z</time>
      </trkpt>
      <trkpt lat="45.35953" lon="6.0736">
        <ele>1272.76</ele>
        <time>2020-12-18T12:04:21.000Z</time>
      </trkpt>
      <trkpt lat="45.35928" lon="6.07369">
        <ele>1283.94</ele>
        <time>2020-12-18T12:04:31.000Z</time>
      </trkpt>
      <trkpt lat="45.35912" lon="6.07383">
        <ele>1287.72</ele>
        <time>2020-12-18T12:04:42.000Z</time>
      </trkpt>
      <trkpt lat="45.35904" lon="6.0739">
        <ele>1278.88</ele>
        <time>2020-12-18T12:05:17.000Z</time>
      </trkpt>
      <trkpt lat="45.35896" lon="6.07398">
        <ele>1276.72</ele>
        <time>2020-12-18T12:05:28.000Z</time>
      </trkpt>
      <trkpt lat="45.35889" lon="6.07384">
        <ele>1281.86</ele>
        <time>2020-12-18T12:05:38.000Z</time>
      </trkpt>
      <trkpt lat="45.35868" lon="6.07377">
        <ele>1287.18</ele>
        <time>2020-12-18T12:06:10.000Z</time>
      </trkpt>
      <trkpt lat="45.35855" lon="6.07374">
        <ele>1287.17</ele>
        <time>2020-12-18T12:06:20.000Z</time>
      </trkpt>
      <trkpt lat="45.35841" lon="6.07362">
        <ele>1295.11</ele>
        <time>2020-12-18T12:06:37.000Z</time>
      </trkpt>
      <trkpt lat="45.35837" lon="6.07361">
        <ele>1301.28</ele>
        <time>2020-12-18T12:06:47.000Z</time>
      </trkpt>
      <trkpt lat="45.35825" lon="6.07365">
        <ele>1303.01</ele>
        <time>2020-12-18T12:06:58.000Z</time>
      </trkpt>
      <trkpt lat="45.35817" lon="6.07362">
        <ele>1302.17</ele>
        <time>2020-12-18T12:07:08.000Z</time>
      </trkpt>
      <trkpt lat="45.35808" lon="6.07361">
        <ele>1302.24</ele>
        <time>2020-12-18T12:07:18.000Z</time>
      </trkpt>
      <trkpt lat="45.35805" lon="6.07378">
        <ele>1301.39</ele>
        <time>2020-12-18T12:07:28.000Z</time>
      </trkpt>
      <trkpt lat="45.3581" lon="6.07378">
        <ele>1300.61</ele>
        <time>2020-12-18T12:07:38.000Z</time>
      </trkpt>
      <trkpt lat="45.35812" lon="6.07374">
        <ele>1300.59</ele>
        <time>2020-12-18T12:07:48.000Z</time>
      </trkpt>
      <trkpt lat="45.3581" lon="6.07376">
        <ele>1297.55</ele>
        <time>2020-12-18T12:09:24.000Z</time>
      </trkpt>
      <trkpt lat="45.35805" lon="6.07378">
        <ele>1298.42</ele>
        <time>2020-12-18T12:09:34.000Z</time>
      </trkpt>
      <trkpt lat="45.35784" lon="6.07373">
        <ele>1303.81</ele>
        <time>2020-12-18T12:09:44.000Z</time>
      </trkpt>
      <trkpt lat="45.35762" lon="6.07387">
        <ele>1308.23</ele>
        <time>2020-12-18T12:10:09.000Z</time>
      </trkpt>
      <trkpt lat="45.35743" lon="6.07372">
        <ele>1316.68</ele>
        <time>2020-12-18T12:10:19.000Z</time>
      </trkpt>
      <trkpt lat="45.35736" lon="6.07375">
        <ele>1318.35</ele>
        <time>2020-12-18T12:10:29.000Z</time>
      </trkpt>
      <trkpt lat="45.35726" lon="6.07375">
        <ele>1323.32</ele>
        <time>2020-12-18T12:10:39.000Z</time>
      </trkpt>
      <trkpt lat="45.3572" lon="6.07385">
        <ele>1322.09</ele>
        <time>2020-12-18T12:10:49.000Z</time>
      </trkpt>
      <trkpt lat="45.35718" lon="6.07398">
        <ele>1322.25</ele>
        <time>2020-12-18T12:10:59.000Z</time>
      </trkpt>
      <trkpt lat="45.3571" lon="6.07431">
        <ele>1322.47</ele>
        <time>2020-12-18T12:11:44.000Z</time>
      </trkpt>
      <trkpt lat="45.35706" lon="6.07424">
        <ele>1322.74</ele>
        <time>2020-12-18T12:11:54.000Z</time>
      </trkpt>
      <trkpt lat="45.35704" lon="6.07426">
        <ele>1321.27</ele>
        <time>2020-12-18T12:12:04.000Z</time>
      </trkpt>
      <trkpt lat="45.35701" lon="6.0743">
        <ele>1320.61</ele>
        <time>2020-12-18T12:12:14.000Z</time>
      </trkpt>
      <trkpt lat="45.357" lon="6.07432">
        <ele>1322.18</ele>
        <time>2020-12-18T12:12:24.000Z</time>
      </trkpt>
      <trkpt lat="45.35699" lon="6.07433">
        <ele>1322.99</ele>
        <time>2020-12-18T12:12:43.000Z</time>
      </trkpt>
      <trkpt lat="45.35698" lon="6.07435">
        <ele>1323.98</ele>
        <time>2020-12-18T12:13:21.000Z</time>
      </trkpt>
      <trkpt lat="45.35687" lon="6.07452">
        <ele>1316.56</ele>
        <time>2020-12-18T12:13:31.000Z</time>
      </trkpt>
      <trkpt lat="45.35685" lon="6.07469">
        <ele>1321.37</ele>
        <time>2020-12-18T12:13:41.000Z</time>
      </trkpt>
      <trkpt lat="45.35682" lon="6.07481">
        <ele>1328.83</ele>
        <time>2020-12-18T12:13:51.000Z</time>
      </trkpt>
      <trkpt lat="45.35681" lon="6.07487">
        <ele>1332.27</ele>
        <time>2020-12-18T12:14:01.000Z</time>
      </trkpt>
      <trkpt lat="45.35676" lon="6.07495">
        <ele>1338.16</ele>
        <time>2020-12-18T12:14:11.000Z</time>
      </trkpt>
      <trkpt lat="45.35666" lon="6.07488">
        <ele>1343.84</ele>
        <time>2020-12-18T12:14:21.000Z</time>
      </trkpt>
      <trkpt lat="45.35662" lon="6.07491">
        <ele>1352.01</ele>
        <time>2020-12-18T12:14:31.000Z</time>
      </trkpt>
      <trkpt lat="45.35662" lon="6.07493">
        <ele>1349.93</ele>
        <time>2020-12-18T12:14:41.000Z</time>
      </trkpt>
      <trkpt lat="45.35661" lon="6.07495">
        <ele>1349.35</ele>
        <time>2020-12-18T12:14:51.000Z</time>
      </trkpt>
      <trkpt lat="45.3566" lon="6.07497">
        <ele>1348.25</ele>
        <time>2020-12-18T12:16:07.000Z</time>
      </trkpt>
      <trkpt lat="45.35639" lon="6.07522">
        <ele>1350.44</ele>
        <time>2020-12-18T12:16:21.000Z</time>
      </trkpt>
      <trkpt lat="45.35631" lon="6.07534">
        <ele>1355.01</ele>
        <time>2020-12-18T12:16:31.000Z</time>
      </trkpt>
      <trkpt lat="45.35627" lon="6.07545">
        <ele>1360.89</ele>
        <time>2020-12-18T12:16:41.000Z</time>
      </trkpt>
      <trkpt lat="45.35623" lon="6.0755">
        <ele>1362.31</ele>
        <time>2020-12-18T12:16:51.000Z</time>
      </trkpt>
      <trkpt lat="45.3562" lon="6.07555">
        <ele>1359.77</ele>
        <time>2020-12-18T12:17:01.000Z</time>
      </trkpt>
      <trkpt lat="45.35623" lon="6.07561">
        <ele>1360.82</ele>
        <time>2020-12-18T12:17:11.000Z</time>
      </trkpt>
      <trkpt lat="45.35626" lon="6.07566">
        <ele>1360.01</ele>
        <time>2020-12-18T12:17:21.000Z</time>
      </trkpt>
      <trkpt lat="45.35626" lon="6.0757">
        <ele>1361.37</ele>
        <time>2020-12-18T12:17:35.000Z</time>
      </trkpt>
      <trkpt lat="45.35631" lon="6.07597">
        <ele>1363.15</ele>
        <time>2020-12-18T12:17:50.000Z</time>
      </trkpt>
      <trkpt lat="45.35621" lon="6.07612">
        <ele>1366.51</ele>
        <time>2020-12-18T12:18:00.000Z</time>
      </trkpt>
      <trkpt lat="45.35622" lon="6.07619">
        <ele>1368.64</ele>
        <time>2020-12-18T12:18:10.000Z</time>
      </trkpt>
      <trkpt lat="45.35628" lon="6.07624">
        <ele>1365.75</ele>
        <time>2020-12-18T12:18:20.000Z</time>
      </trkpt>
      <trkpt lat="45.35624" lon="6.07633">
        <ele>1365.41</ele>
        <time>2020-12-18T12:18:30.000Z</time>
      </trkpt>
      <trkpt lat="45.35624" lon="6.07635">
        <ele>1363.75</ele>
        <time>2020-12-18T12:19:15.000Z</time>
      </trkpt>
      <trkpt lat="45.35623" lon="6.07642">
        <ele>1358.62</ele>
        <time>2020-12-18T12:19:25.000Z</time>
      </trkpt>
      <trkpt lat="45.35621" lon="6.07645">
        <ele>1357.8</ele>
        <time>2020-12-18T12:19:35.000Z</time>
      </trkpt>
      <trkpt lat="45.3562" lon="6.07645">
        <ele>1359.59</ele>
        <time>2020-12-18T12:19:45.000Z</time>
      </trkpt>
      <trkpt lat="45.35617" lon="6.07649">
        <ele>1360.12</ele>
        <time>2020-12-18T12:19:55.000Z</time>
      </trkpt>
      <trkpt lat="45.35603" lon="6.07669">
        <ele>1367.25</ele>
        <time>2020-12-18T12:20:05.000Z</time>
      </trkpt>
      <trkpt lat="45.35597" lon="6.07686">
        <ele>1371.61</ele>
        <time>2020-12-18T12:20:15.000Z</time>
      </trkpt>
      <trkpt lat="45.35597" lon="6.07689">
        <ele>1376.13</ele>
        <time>2020-12-18T12:20:25.000Z</time>
      </trkpt>
      <trkpt lat="45.35598" lon="6.07689">
        <ele>1375.28</ele>
        <time>2020-12-18T12:20:48.000Z</time>
      </trkpt>
      <trkpt lat="45.35599" lon="6.07687">
        <ele>1374.19</ele>
        <time>2020-12-18T12:20:58.000Z</time>
      </trkpt>
      <trkpt lat="45.35599" lon="6.07689">
        <ele>1377.54</ele>
        <time>2020-12-18T12:22:37.000Z</time>
      </trkpt>
      <trkpt lat="45.35601" lon="6.07688">
        <ele>1381.24</ele>
        <time>2020-12-18T12:22:47.000Z</time>
      </trkpt>
      <trkpt lat="45.35601" lon="6.0769">
        <ele>1383.05</ele>
        <time>2020-12-18T12:23:32.000Z</time>
      </trkpt>
      <trkpt lat="45.356" lon="6.07688">
        <ele>1382.39</ele>
        <time>2020-12-18T12:25:28.000Z</time>
      </trkpt>
      <trkpt lat="45.35599" lon="6.07668">
        <ele>1383.3</ele>
        <time>2020-12-18T12:25:38.000Z</time>
      </trkpt>
      <trkpt lat="45.35585" lon="6.07657">
        <ele>1398.38</ele>
        <time>2020-12-18T12:25:48.000Z</time>
      </trkpt>
      <trkpt lat="45.35582" lon="6.07651">
        <ele>1396.78</ele>
        <time>2020-12-18T12:25:58.000Z</time>
      </trkpt>
      <trkpt lat="45.35579" lon="6.07648">
        <ele>1398.51</ele>
        <time>2020-12-18T12:26:08.000Z</time>
      </trkpt>
      <trkpt lat="45.35578" lon="6.07647">
        <ele>1398.52</ele>
        <time>2020-12-18T12:26:18.000Z</time>
      </trkpt>
      <trkpt lat="45.35578" lon="6.07646">
        <ele>1396.71</ele>
        <time>2020-12-18T12:26:32.000Z</time>
      </trkpt>
      <trkpt lat="45.35576" lon="6.07641">
        <ele>1396.9</ele>
        <time>2020-12-18T12:26:42.000Z</time>
      </trkpt>
      <trkpt lat="45.35567" lon="6.07613">
        <ele>1401.68</ele>
        <time>2020-12-18T12:26:52.000Z</time>
      </trkpt>
      <trkpt lat="45.35557" lon="6.07597">
        <ele>1400.49</ele>
        <time>2020-12-18T12:27:02.000Z</time>
      </trkpt>
      <trkpt lat="45.35556" lon="6.07589">
        <ele>1398.7</ele>
        <time>2020-12-18T12:27:14.000Z</time>
      </trkpt>
      <trkpt lat="45.35553" lon="6.07584">
        <ele>1402.33</ele>
        <time>2020-12-18T12:27:24.000Z</time>
      </trkpt>
      <trkpt lat="45.35552" lon="6.07583">
        <ele>1402.47</ele>
        <time>2020-12-18T12:27:48.000Z</time>
      </trkpt>
      <trkpt lat="45.35547" lon="6.07568">
        <ele>1408.28</ele>
        <time>2020-12-18T12:27:58.000Z</time>
      </trkpt>
      <trkpt lat="45.35547" lon="6.07562">
        <ele>1407.79</ele>
        <time>2020-12-18T12:28:08.000Z</time>
      </trkpt>
      <trkpt lat="45.35546" lon="6.0756">
        <ele>1409.06</ele>
        <time>2020-12-18T12:28:18.000Z</time>
      </trkpt>
      <trkpt lat="45.35545" lon="6.07559">
        <ele>1409.15</ele>
        <time>2020-12-18T12:28:28.000Z</time>
      </trkpt>
      <trkpt lat="45.35545" lon="6.07558">
        <ele>1408.75</ele>
        <time>2020-12-18T12:29:36.000Z</time>
      </trkpt>
      <trkpt lat="45.35544" lon="6.07556">
        <ele>1408.3</ele>
        <time>2020-12-18T12:29:47.000Z</time>
      </trkpt>
      <trkpt lat="45.35528" lon="6.07529">
        <ele>1411.15</ele>
        <time>2020-12-18T12:29:57.000Z</time>
      </trkpt>
      <trkpt lat="45.35519" lon="6.0752">
        <ele>1407.39</ele>
        <time>2020-12-18T12:30:07.000Z</time>
      </trkpt>
      <trkpt lat="45.35502" lon="6.07497">
        <ele>1408.99</ele>
        <time>2020-12-18T12:30:22.000Z</time>
      </trkpt>
      <trkpt lat="45.35488" lon="6.07498">
        <ele>1412.43</ele>
        <time>2020-12-18T12:30:32.000Z</time>
      </trkpt>
      <trkpt lat="45.35485" lon="6.07498">
        <ele>1416.49</ele>
        <time>2020-12-18T12:30:42.000Z</time>
      </trkpt>
      <trkpt lat="45.3547" lon="6.07481">
        <ele>1420.87</ele>
        <time>2020-12-18T12:31:01.000Z</time>
      </trkpt>
      <trkpt lat="45.35459" lon="6.07487">
        <ele>1419.9</ele>
        <time>2020-12-18T12:31:11.000Z</time>
      </trkpt>
      <trkpt lat="45.35438" lon="6.07474">
        <ele>1419.86</ele>
        <time>2020-12-18T12:31:35.000Z</time>
      </trkpt>
      <trkpt lat="45.35436" lon="6.07479">
        <ele>1429.67</ele>
        <time>2020-12-18T12:32:10.000Z</time>
      </trkpt>
      <trkpt lat="45.35434" lon="6.07464">
        <ele>1429.1</ele>
        <time>2020-12-18T12:32:20.000Z</time>
      </trkpt>
      <trkpt lat="45.35432" lon="6.07462">
        <ele>1429.56</ele>
        <time>2020-12-18T12:32:30.000Z</time>
      </trkpt>
      <trkpt lat="45.35434" lon="6.0746">
        <ele>1428.81</ele>
        <time>2020-12-18T12:32:46.000Z</time>
      </trkpt>
      <trkpt lat="45.35432" lon="6.07459">
        <ele>1430.83</ele>
        <time>2020-12-18T12:32:56.000Z</time>
      </trkpt>
      <trkpt lat="45.35415" lon="6.07456">
        <ele>1438.18</ele>
        <time>2020-12-18T12:33:06.000Z</time>
      </trkpt>
      <trkpt lat="45.35406" lon="6.07451">
        <ele>1435.97</ele>
        <time>2020-12-18T12:33:16.000Z</time>
      </trkpt>
      <trkpt lat="45.35401" lon="6.07452">
        <ele>1438.81</ele>
        <time>2020-12-18T12:33:26.000Z</time>
      </trkpt>
      <trkpt lat="45.35399" lon="6.07453">
        <ele>1439.53</ele>
        <time>2020-12-18T12:33:44.000Z</time>
      </trkpt>
      <trkpt lat="45.35398" lon="6.07454">
        <ele>1441.12</ele>
        <time>2020-12-18T12:34:44.000Z</time>
      </trkpt>
      <trkpt lat="45.35355" lon="6.07465">
        <ele>1447.92</ele>
        <time>2020-12-18T12:35:00.000Z</time>
      </trkpt>
      <trkpt lat="45.35341" lon="6.07466">
        <ele>1449.06</ele>
        <time>2020-12-18T12:35:10.000Z</time>
      </trkpt>
      <trkpt lat="45.35337" lon="6.07463">
        <ele>1455.04</ele>
        <time>2020-12-18T12:35:20.000Z</time>
      </trkpt>
      <trkpt lat="45.35332" lon="6.07464">
        <ele>1448.14</ele>
        <time>2020-12-18T12:35:30.000Z</time>
      </trkpt>
      <trkpt lat="45.35324" lon="6.0746">
        <ele>1449.99</ele>
        <time>2020-12-18T12:35:40.000Z</time>
      </trkpt>
      <trkpt lat="45.35323" lon="6.07466">
        <ele>1455.36</ele>
        <time>2020-12-18T12:35:50.000Z</time>
      </trkpt>
      <trkpt lat="45.35318" lon="6.07465">
        <ele>1460.01</ele>
        <time>2020-12-18T12:36:02.000Z</time>
      </trkpt>
      <trkpt lat="45.35309" lon="6.07466">
        <ele>1456.28</ele>
        <time>2020-12-18T12:36:23.000Z</time>
      </trkpt>
      <trkpt lat="45.35312" lon="6.07469">
        <ele>1454.53</ele>
        <time>2020-12-18T12:36:33.000Z</time>
      </trkpt>
      <trkpt lat="45.35309" lon="6.07471">
        <ele>1454.59</ele>
        <time>2020-12-18T12:36:43.000Z</time>
      </trkpt>
      <trkpt lat="45.35308" lon="6.07472">
        <ele>1456.17</ele>
        <time>2020-12-18T12:36:58.000Z</time>
      </trkpt>
      <trkpt lat="45.35309" lon="6.07472">
        <ele>1458.64</ele>
        <time>2020-12-18T12:37:17.000Z</time>
      </trkpt>
      <trkpt lat="45.35308" lon="6.07472">
        <ele>1458.56</ele>
        <time>2020-12-18T12:37:40.000Z</time>
      </trkpt>
      <trkpt lat="45.35291" lon="6.07481">
        <ele>1462.08</ele>
        <time>2020-12-18T12:37:50.000Z</time>
      </trkpt>
      <trkpt lat="45.35279" lon="6.07484">
        <ele>1458.96</ele>
        <time>2020-12-18T12:38:00.000Z</time>
      </trkpt>
      <trkpt lat="45.35275" lon="6.0749">
        <ele>1461.64</ele>
        <time>2020-12-18T12:38:10.000Z</time>
      </trkpt>
      <trkpt lat="45.35274" lon="6.07489">
        <ele>1461.41</ele>
        <time>2020-12-18T12:38:24.000Z</time>
      </trkpt>
      <trkpt lat="45.35272" lon="6.07484">
        <ele>1458.18</ele>
        <time>2020-12-18T12:38:34.000Z</time>
      </trkpt>
      <trkpt lat="45.35261" lon="6.07472">
        <ele>1463.01</ele>
        <time>2020-12-18T12:38:44.000Z</time>
      </trkpt>
      <trkpt lat="45.35254" lon="6.07462">
        <ele>1461.65</ele>
        <time>2020-12-18T12:38:54.000Z</time>
      </trkpt>
      <trkpt lat="45.35253" lon="6.07461">
        <ele>1459.34</ele>
        <time>2020-12-18T12:39:04.000Z</time>
      </trkpt>
      <trkpt lat="45.3525" lon="6.07461">
        <ele>1459.89</ele>
        <time>2020-12-18T12:39:14.000Z</time>
      </trkpt>
      <trkpt lat="45.35249" lon="6.07462">
        <ele>1460.25</ele>
        <time>2020-12-18T12:39:27.000Z</time>
      </trkpt>
      <trkpt lat="45.35248" lon="6.07462">
        <ele>1459.48</ele>
        <time>2020-12-18T12:39:46.000Z</time>
      </trkpt>
      <trkpt lat="45.35237" lon="6.07454">
        <ele>1455.93</ele>
        <time>2020-12-18T12:39:56.000Z</time>
      </trkpt>
      <trkpt lat="45.35228" lon="6.07454">
        <ele>1464.71</ele>
        <time>2020-12-18T12:40:06.000Z</time>
      </trkpt>
      <trkpt lat="45.35211" lon="6.07446">
        <ele>1470.48</ele>
        <time>2020-12-18T12:40:16.000Z</time>
      </trkpt>
      <trkpt lat="45.352" lon="6.07446">
        <ele>1470.16</ele>
        <time>2020-12-18T12:40:26.000Z</time>
      </trkpt>
      <trkpt lat="45.35193" lon="6.07448">
        <ele>1471.44</ele>
        <time>2020-12-18T12:40:36.000Z</time>
      </trkpt>
      <trkpt lat="45.35191" lon="6.07447">
        <ele>1472.55</ele>
        <time>2020-12-18T12:40:46.000Z</time>
      </trkpt>
      <trkpt lat="45.35185" lon="6.0745">
        <ele>1472.52</ele>
        <time>2020-12-18T12:40:56.000Z</time>
      </trkpt>
      <trkpt lat="45.35181" lon="6.0744">
        <ele>1471.38</ele>
        <time>2020-12-18T12:41:06.000Z</time>
      </trkpt>
      <trkpt lat="45.35177" lon="6.07442">
        <ele>1473.37</ele>
        <time>2020-12-18T12:41:16.000Z</time>
      </trkpt>
      <trkpt lat="45.35176" lon="6.0744">
        <ele>1473.42</ele>
        <time>2020-12-18T12:41:26.000Z</time>
      </trkpt>
      <trkpt lat="45.35175" lon="6.0744">
        <ele>1472.43</ele>
        <time>2020-12-18T12:41:48.000Z</time>
      </trkpt>
      <trkpt lat="45.35174" lon="6.0744">
        <ele>1471.86</ele>
        <time>2020-12-18T12:42:24.000Z</time>
      </trkpt>
      <trkpt lat="45.35157" lon="6.07432">
        <ele>1472.64</ele>
        <time>2020-12-18T12:42:34.000Z</time>
      </trkpt>
      <trkpt lat="45.35137" lon="6.0742">
        <ele>1472.25</ele>
        <time>2020-12-18T12:42:44.000Z</time>
      </trkpt>
      <trkpt lat="45.35117" lon="6.07408">
        <ele>1472.54</ele>
        <time>2020-12-18T12:42:54.000Z</time>
      </trkpt>
      <trkpt lat="45.35105" lon="6.07409">
        <ele>1473.29</ele>
        <time>2020-12-18T12:43:04.000Z</time>
      </trkpt>
      <trkpt lat="45.35096" lon="6.07409">
        <ele>1476.5</ele>
        <time>2020-12-18T12:43:14.000Z</time>
      </trkpt>
      <trkpt lat="45.35099" lon="6.0741">
        <ele>1480.82</ele>
        <time>2020-12-18T12:43:24.000Z</time>
      </trkpt>
      <trkpt lat="45.35093" lon="6.07405">
        <ele>1482.62</ele>
        <time>2020-12-18T12:43:34.000Z</time>
      </trkpt>
      <trkpt lat="45.35092" lon="6.07407">
        <ele>1483.72</ele>
        <time>2020-12-18T12:43:44.000Z</time>
      </trkpt>
      <trkpt lat="45.35086" lon="6.0741">
        <ele>1484.48</ele>
        <time>2020-12-18T12:43:59.000Z</time>
      </trkpt>
      <trkpt lat="45.35071" lon="6.07405">
        <ele>1480.66</ele>
        <time>2020-12-18T12:44:09.000Z</time>
      </trkpt>
      <trkpt lat="45.35064" lon="6.07402">
        <ele>1480.68</ele>
        <time>2020-12-18T12:44:19.000Z</time>
      </trkpt>
      <trkpt lat="45.35045" lon="6.07386">
        <ele>1483.03</ele>
        <time>2020-12-18T12:44:31.000Z</time>
      </trkpt>
      <trkpt lat="45.3504" lon="6.0739">
        <ele>1485.24</ele>
        <time>2020-12-18T12:44:41.000Z</time>
      </trkpt>
      <trkpt lat="45.35027" lon="6.07395">
        <ele>1486.96</ele>
        <time>2020-12-18T12:44:51.000Z</time>
      </trkpt>
      <trkpt lat="45.35025" lon="6.07393">
        <ele>1489.57</ele>
        <time>2020-12-18T12:45:01.000Z</time>
      </trkpt>
      <trkpt lat="45.35024" lon="6.07392">
        <ele>1490.27</ele>
        <time>2020-12-18T12:45:13.000Z</time>
      </trkpt>
      <trkpt lat="45.35023" lon="6.07393">
        <ele>1489.53</ele>
        <time>2020-12-18T12:45:33.000Z</time>
      </trkpt>
      <trkpt lat="45.35022" lon="6.07393">
        <ele>1489.25</ele>
        <time>2020-12-18T12:45:54.000Z</time>
      </trkpt>
      <trkpt lat="45.35021" lon="6.07394">
        <ele>1489.27</ele>
        <time>2020-12-18T12:46:04.000Z</time>
      </trkpt>
      <trkpt lat="45.34996" lon="6.07367">
        <ele>1486.46</ele>
        <time>2020-12-18T12:46:14.000Z</time>
      </trkpt>
      <trkpt lat="45.34978" lon="6.07356">
        <ele>1496.81</ele>
        <time>2020-12-18T12:46:24.000Z</time>
      </trkpt>
      <trkpt lat="45.34972" lon="6.07347">
        <ele>1494.87</ele>
        <time>2020-12-18T12:46:34.000Z</time>
      </trkpt>
      <trkpt lat="45.34924" lon="6.07323">
        <ele>1503.29</ele>
        <time>2020-12-18T12:48:12.000Z</time>
      </trkpt>
      <trkpt lat="45.34907" lon="6.07309">
        <ele>1500.03</ele>
        <time>2020-12-18T12:48:24.000Z</time>
      </trkpt>
      <trkpt lat="45.34898" lon="6.07314">
        <ele>1512.88</ele>
        <time>2020-12-18T12:49:02.000Z</time>
      </trkpt>
      <trkpt lat="45.34892" lon="6.07311">
        <ele>1514.52</ele>
        <time>2020-12-18T12:49:12.000Z</time>
      </trkpt>
      <trkpt lat="45.34883" lon="6.0731">
        <ele>1516.9</ele>
        <time>2020-12-18T12:49:22.000Z</time>
      </trkpt>
      <trkpt lat="45.34881" lon="6.07311">
        <ele>1515.71</ele>
        <time>2020-12-18T12:49:32.000Z</time>
      </trkpt>
      <trkpt lat="45.34879" lon="6.0731">
        <ele>1516.9</ele>
        <time>2020-12-18T12:49:53.000Z</time>
      </trkpt>
      <trkpt lat="45.34859" lon="6.07316">
        <ele>1506.51</ele>
        <time>2020-12-18T12:50:03.000Z</time>
      </trkpt>
      <trkpt lat="45.34851" lon="6.07316">
        <ele>1506.6</ele>
        <time>2020-12-18T12:50:13.000Z</time>
      </trkpt>
      <trkpt lat="45.3485" lon="6.07316">
        <ele>1505.48</ele>
        <time>2020-12-18T12:50:23.000Z</time>
      </trkpt>
      <trkpt lat="45.34849" lon="6.07315">
        <ele>1504.71</ele>
        <time>2020-12-18T12:50:33.000Z</time>
      </trkpt>
      <trkpt lat="45.34842" lon="6.07304">
        <ele>1504.78</ele>
        <time>2020-12-18T12:50:43.000Z</time>
      </trkpt>
      <trkpt lat="45.34834" lon="6.07296">
        <ele>1504.51</ele>
        <time>2020-12-18T12:50:53.000Z</time>
      </trkpt>
      <trkpt lat="45.34826" lon="6.07284">
        <ele>1511.01</ele>
        <time>2020-12-18T12:51:03.000Z</time>
      </trkpt>
      <trkpt lat="45.34828" lon="6.07274">
        <ele>1516.64</ele>
        <time>2020-12-18T12:51:13.000Z</time>
      </trkpt>
      <trkpt lat="45.34829" lon="6.07275">
        <ele>1515.64</ele>
        <time>2020-12-18T12:51:23.000Z</time>
      </trkpt>
      <trkpt lat="45.34828" lon="6.07275">
        <ele>1516.39</ele>
        <time>2020-12-18T12:51:36.000Z</time>
      </trkpt>
      <trkpt lat="45.34827" lon="6.07275">
        <ele>1516.79</ele>
        <time>2020-12-18T12:51:46.000Z</time>
      </trkpt>
      <trkpt lat="45.34825" lon="6.07275">
        <ele>1516.43</ele>
        <time>2020-12-18T12:52:12.000Z</time>
      </trkpt>
      <trkpt lat="45.34804" lon="6.07269">
        <ele>1513.9</ele>
        <time>2020-12-18T12:52:22.000Z</time>
      </trkpt>
      <trkpt lat="45.34789" lon="6.0727">
        <ele>1511.28</ele>
        <time>2020-12-18T12:52:32.000Z</time>
      </trkpt>
      <trkpt lat="45.34785" lon="6.0727">
        <ele>1512.47</ele>
        <time>2020-12-18T12:52:42.000Z</time>
      </trkpt>
      <trkpt lat="45.3478" lon="6.07273">
        <ele>1512.52</ele>
        <time>2020-12-18T12:52:52.000Z</time>
      </trkpt>
      <trkpt lat="45.34779" lon="6.07271">
        <ele>1512.79</ele>
        <time>2020-12-18T12:53:02.000Z</time>
      </trkpt>
      <trkpt lat="45.34769" lon="6.07261">
        <ele>1516.09</ele>
        <time>2020-12-18T12:53:12.000Z</time>
      </trkpt>
      <trkpt lat="45.34769" lon="6.07258">
        <ele>1520.06</ele>
        <time>2020-12-18T12:53:22.000Z</time>
      </trkpt>
      <trkpt lat="45.34768" lon="6.07257">
        <ele>1520.43</ele>
        <time>2020-12-18T12:53:32.000Z</time>
      </trkpt>
      <trkpt lat="45.34769" lon="6.07256">
        <ele>1518.82</ele>
        <time>2020-12-18T12:53:52.000Z</time>
      </trkpt>
      <trkpt lat="45.34764" lon="6.07242">
        <ele>1518.7</ele>
        <time>2020-12-18T12:54:02.000Z</time>
      </trkpt>
      <trkpt lat="45.34758" lon="6.07226">
        <ele>1513.28</ele>
        <time>2020-12-18T12:54:12.000Z</time>
      </trkpt>
      <trkpt lat="45.34752" lon="6.07209">
        <ele>1512.65</ele>
        <time>2020-12-18T12:54:22.000Z</time>
      </trkpt>
      <trkpt lat="45.34759" lon="6.07197">
        <ele>1512.43</ele>
        <time>2020-12-18T12:54:32.000Z</time>
      </trkpt>
      <trkpt lat="45.34759" lon="6.07188">
        <ele>1519.94</ele>
        <time>2020-12-18T12:54:42.000Z</time>
      </trkpt>
      <trkpt lat="45.34588" lon="6.0693">
        <ele>1514.39</ele>
        <time>2020-12-18T13:01:41.000Z</time>
      </trkpt>
      <trkpt lat="45.34572" lon="6.06953">
        <ele>1530.04</ele>
        <time>2020-12-18T13:01:51.000Z</time>
      </trkpt>
      <trkpt lat="45.34571" lon="6.06953">
        <ele>1530.55</ele>
        <time>2020-12-18T13:02:03.000Z</time>
      </trkpt>
      <trkpt lat="45.3457" lon="6.06953">
        <ele>1531.87</ele>
        <time>2020-12-18T13:04:12.000Z</time>
      </trkpt>
      <trkpt lat="45.34527" lon="6.06915">
        <ele>1535.72</ele>
        <time>2020-12-18T13:04:22.000Z</time>
      </trkpt>
      <trkpt lat="45.34445" lon="6.06894">
        <ele>1547.8</ele>
        <time>2020-12-18T13:06:48.000Z</time>
      </trkpt>
      <trkpt lat="45.34444" lon="6.06894">
        <ele>1546.87</ele>
        <time>2020-12-18T13:07:51.000Z</time>
      </trkpt>
      <trkpt lat="45.34443" lon="6.06895">
        <ele>1546.38</ele>
        <time>2020-12-18T13:08:40.000Z</time>
      </trkpt>
      <trkpt lat="45.34427" lon="6.06896">
        <ele>1539.58</ele>
        <time>2020-12-18T13:08:50.000Z</time>
      </trkpt>
      <trkpt lat="45.34376" lon="6.06878">
        <ele>1544.4</ele>
        <time>2020-12-18T13:09:16.000Z</time>
      </trkpt>
      <trkpt lat="45.34357" lon="6.06882">
        <ele>1534</ele>
        <time>2020-12-18T13:09:26.000Z</time>
      </trkpt>
      <trkpt lat="45.34351" lon="6.06887">
        <ele>1544.86</ele>
        <time>2020-12-18T13:09:36.000Z</time>
      </trkpt>
      <trkpt lat="45.3435" lon="6.06886">
        <ele>1546.16</ele>
        <time>2020-12-18T13:09:46.000Z</time>
      </trkpt>
      <trkpt lat="45.34348" lon="6.06887">
        <ele>1545.05</ele>
        <time>2020-12-18T13:10:13.000Z</time>
      </trkpt>
      <trkpt lat="45.34331" lon="6.0689">
        <ele>1543.93</ele>
        <time>2020-12-18T13:10:23.000Z</time>
      </trkpt>
      <trkpt lat="45.34318" lon="6.06891">
        <ele>1543.45</ele>
        <time>2020-12-18T13:10:33.000Z</time>
      </trkpt>
      <trkpt lat="45.34313" lon="6.06888">
        <ele>1544.35</ele>
        <time>2020-12-18T13:10:43.000Z</time>
      </trkpt>
      <trkpt lat="45.34305" lon="6.06886">
        <ele>1550.68</ele>
        <time>2020-12-18T13:10:53.000Z</time>
      </trkpt>
      <trkpt lat="45.34301" lon="6.06886">
        <ele>1545.89</ele>
        <time>2020-12-18T13:11:03.000Z</time>
      </trkpt>
      <trkpt lat="45.34298" lon="6.06884">
        <ele>1547.55</ele>
        <time>2020-12-18T13:11:13.000Z</time>
      </trkpt>
      <trkpt lat="45.34298" lon="6.06882">
        <ele>1548.9</ele>
        <time>2020-12-18T13:11:23.000Z</time>
      </trkpt>
      <trkpt lat="45.34298" lon="6.0688">
        <ele>1550.1</ele>
        <time>2020-12-18T13:11:33.000Z</time>
      </trkpt>
      <trkpt lat="45.34297" lon="6.06879">
        <ele>1550.82</ele>
        <time>2020-12-18T13:11:45.000Z</time>
      </trkpt>
      <trkpt lat="45.34293" lon="6.06874">
        <ele>1550.78</ele>
        <time>2020-12-18T13:11:55.000Z</time>
      </trkpt>
      <trkpt lat="45.34285" lon="6.06869">
        <ele>1550.27</ele>
        <time>2020-12-18T13:12:05.000Z</time>
      </trkpt>
      <trkpt lat="45.34277" lon="6.06863">
        <ele>1552.31</ele>
        <time>2020-12-18T13:12:15.000Z</time>
      </trkpt>
      <trkpt lat="45.34273" lon="6.06862">
        <ele>1550.41</ele>
        <time>2020-12-18T13:12:25.000Z</time>
      </trkpt>
      <trkpt lat="45.34272" lon="6.06863">
        <ele>1549.43</ele>
        <time>2020-12-18T13:12:35.000Z</time>
      </trkpt>
      <trkpt lat="45.3427" lon="6.06862">
        <ele>1550.68</ele>
        <time>2020-12-18T13:12:46.000Z</time>
      </trkpt>
      <trkpt lat="45.34252" lon="6.06857">
        <ele>1550.84</ele>
        <time>2020-12-18T13:12:56.000Z</time>
      </trkpt>
      <trkpt lat="45.34251" lon="6.06859">
        <ele>1550.44</ele>
        <time>2020-12-18T13:13:06.000Z</time>
      </trkpt>
      <trkpt lat="45.34248" lon="6.0686">
        <ele>1551.8</ele>
        <time>2020-12-18T13:13:57.000Z</time>
      </trkpt>
      <trkpt lat="45.34242" lon="6.06878">
        <ele>1551.24</ele>
        <time>2020-12-18T13:14:07.000Z</time>
      </trkpt>
      <trkpt lat="45.34235" lon="6.06893">
        <ele>1549.65</ele>
        <time>2020-12-18T13:14:18.000Z</time>
      </trkpt>
      <trkpt lat="45.34223" lon="6.06896">
        <ele>1546.7</ele>
        <time>2020-12-18T13:25:24.000Z</time>
      </trkpt>
      <trkpt lat="45.34223" lon="6.06898">
        <ele>1539.3</ele>
        <time>2020-12-18T13:26:06.000Z</time>
      </trkpt>
      <trkpt lat="45.34224" lon="6.06893">
        <ele>1544.97</ele>
        <time>2020-12-18T13:26:16.000Z</time>
      </trkpt>
      <trkpt lat="45.34222" lon="6.06897">
        <ele>1544.79</ele>
        <time>2020-12-18T13:26:34.000Z</time>
      </trkpt>
      <trkpt lat="45.3422" lon="6.06897">
        <ele>1549.62</ele>
        <time>2020-12-18T13:28:15.000Z</time>
      </trkpt>
      <trkpt lat="45.3422" lon="6.06897">
        <ele>1551.39</ele>
        <time>2020-12-18T13:28:50.000Z</time>
      </trkpt>
      <trkpt lat="45.3422" lon="6.06896">
        <ele>1551.69</ele>
        <time>2020-12-18T13:41:31.000Z</time>
      </trkpt>
      <trkpt lat="45.34218" lon="6.06895">
        <ele>1551.77</ele>
        <time>2020-12-18T13:42:36.000Z</time>
      </trkpt>
      <trkpt lat="45.3421" lon="6.06889">
        <ele>1565.48</ele>
        <time>2020-12-18T13:42:46.000Z</time>
      </trkpt>
      <trkpt lat="45.34198" lon="6.0689">
        <ele>1570.69</ele>
        <time>2020-12-18T13:42:56.000Z</time>
      </trkpt>
      <trkpt lat="45.3419" lon="6.06893">
        <ele>1572.99</ele>
        <time>2020-12-18T13:43:06.000Z</time>
      </trkpt>
      <trkpt lat="45.34186" lon="6.06895">
        <ele>1572.73</ele>
        <time>2020-12-18T13:43:16.000Z</time>
      </trkpt>
      <trkpt lat="45.34185" lon="6.06896">
        <ele>1571.72</ele>
        <time>2020-12-18T13:43:26.000Z</time>
      </trkpt>
      <trkpt lat="45.34185" lon="6.06898">
        <ele>1573.05</ele>
        <time>2020-12-18T13:44:23.000Z</time>
      </trkpt>
      <trkpt lat="45.34193" lon="6.06936">
        <ele>1573.15</ele>
        <time>2020-12-18T13:44:41.000Z</time>
      </trkpt>
      <trkpt lat="45.34189" lon="6.06953">
        <ele>1571.57</ele>
        <time>2020-12-18T13:44:51.000Z</time>
      </trkpt>
      <trkpt lat="45.34184" lon="6.0696">
        <ele>1569.1</ele>
        <time>2020-12-18T13:45:01.000Z</time>
      </trkpt>
      <trkpt lat="45.34188" lon="6.06968">
        <ele>1570.97</ele>
        <time>2020-12-18T13:45:11.000Z</time>
      </trkpt>
      <trkpt lat="45.34183" lon="6.06982">
        <ele>1575.23</ele>
        <time>2020-12-18T13:45:21.000Z</time>
      </trkpt>
      <trkpt lat="45.34175" lon="6.06986">
        <ele>1572.35</ele>
        <time>2020-12-18T13:45:31.000Z</time>
      </trkpt>
      <trkpt lat="45.34169" lon="6.06997">
        <ele>1572.05</ele>
        <time>2020-12-18T13:45:41.000Z</time>
      </trkpt>
      <trkpt lat="45.34163" lon="6.07009">
        <ele>1571.57</ele>
        <time>2020-12-18T13:45:51.000Z</time>
      </trkpt>
      <trkpt lat="45.34162" lon="6.07017">
        <ele>1572.87</ele>
        <time>2020-12-18T13:46:01.000Z</time>
      </trkpt>
      <trkpt lat="45.34161" lon="6.07016">
        <ele>1578.65</ele>
        <time>2020-12-18T13:46:11.000Z</time>
      </trkpt>
      <trkpt lat="45.34159" lon="6.07016">
        <ele>1578.89</ele>
        <time>2020-12-18T13:46:21.000Z</time>
      </trkpt>
      <trkpt lat="45.34159" lon="6.07018">
        <ele>1580.35</ele>
        <time>2020-12-18T13:46:50.000Z</time>
      </trkpt>
      <trkpt lat="45.34159" lon="6.07019">
        <ele>1581.44</ele>
        <time>2020-12-18T13:47:17.000Z</time>
      </trkpt>
      <trkpt lat="45.3417" lon="6.07032">
        <ele>1586.17</ele>
        <time>2020-12-18T13:47:27.000Z</time>
      </trkpt>
      <trkpt lat="45.34179" lon="6.07042">
        <ele>1588.85</ele>
        <time>2020-12-18T13:47:37.000Z</time>
      </trkpt>
      <trkpt lat="45.34184" lon="6.07051">
        <ele>1587.34</ele>
        <time>2020-12-18T13:47:47.000Z</time>
      </trkpt>
      <trkpt lat="45.34188" lon="6.07055">
        <ele>1589.56</ele>
        <time>2020-12-18T13:47:57.000Z</time>
      </trkpt>
      <trkpt lat="45.34192" lon="6.0706">
        <ele>1589.6</ele>
        <time>2020-12-18T13:48:07.000Z</time>
      </trkpt>
      <trkpt lat="45.34192" lon="6.07061">
        <ele>1588.95</ele>
        <time>2020-12-18T13:48:23.000Z</time>
      </trkpt>
      <trkpt lat="45.34193" lon="6.07062">
        <ele>1590.65</ele>
        <time>2020-12-18T13:48:33.000Z</time>
      </trkpt>
      <trkpt lat="45.34193" lon="6.07063">
        <ele>1591.81</ele>
        <time>2020-12-18T13:48:43.000Z</time>
      </trkpt>
      <trkpt lat="45.34196" lon="6.07068">
        <ele>1586.03</ele>
        <time>2020-12-18T13:48:53.000Z</time>
      </trkpt>
      <trkpt lat="45.342" lon="6.07075">
        <ele>1585.53</ele>
        <time>2020-12-18T13:49:03.000Z</time>
      </trkpt>
      <trkpt lat="45.34207" lon="6.07083">
        <ele>1584.37</ele>
        <time>2020-12-18T13:49:13.000Z</time>
      </trkpt>
      <trkpt lat="45.34214" lon="6.07084">
        <ele>1585</ele>
        <time>2020-12-18T13:49:23.000Z</time>
      </trkpt>
      <trkpt lat="45.34214" lon="6.07082">
        <ele>1586.56</ele>
        <time>2020-12-18T13:49:33.000Z</time>
      </trkpt>
      <trkpt lat="45.34215" lon="6.07083">
        <ele>1586.71</ele>
        <time>2020-12-18T13:49:55.000Z</time>
      </trkpt>
      <trkpt lat="45.3422" lon="6.07089">
        <ele>1590.85</ele>
        <time>2020-12-18T13:50:05.000Z</time>
      </trkpt>
      <trkpt lat="45.34231" lon="6.07087">
        <ele>1594.98</ele>
        <time>2020-12-18T13:50:15.000Z</time>
      </trkpt>
      <trkpt lat="45.34239" lon="6.07084">
        <ele>1595.86</ele>
        <time>2020-12-18T13:50:25.000Z</time>
      </trkpt>
      <trkpt lat="45.34246" lon="6.07072">
        <ele>1590.67</ele>
        <time>2020-12-18T13:50:35.000Z</time>
      </trkpt>
      <trkpt lat="45.34247" lon="6.07076">
        <ele>1590.23</ele>
        <time>2020-12-18T13:50:45.000Z</time>
      </trkpt>
      <trkpt lat="45.34253" lon="6.07071">
        <ele>1595.26</ele>
        <time>2020-12-18T13:50:55.000Z</time>
      </trkpt>
      <trkpt lat="45.3426" lon="6.07074">
        <ele>1593.04</ele>
        <time>2020-12-18T13:51:05.000Z</time>
      </trkpt>
      <trkpt lat="45.34262" lon="6.07077">
        <ele>1593.12</ele>
        <time>2020-12-18T13:51:15.000Z</time>
      </trkpt>
      <trkpt lat="45.34263" lon="6.07079">
        <ele>1593.19</ele>
        <time>2020-12-18T13:51:25.000Z</time>
      </trkpt>
      <trkpt lat="45.34266" lon="6.07079">
        <ele>1593.4</ele>
        <time>2020-12-18T13:51:54.000Z</time>
      </trkpt>
      <trkpt lat="45.34277" lon="6.07085">
        <ele>1589.47</ele>
        <time>2020-12-18T13:52:04.000Z</time>
      </trkpt>
      <trkpt lat="45.34287" lon="6.07086">
        <ele>1586.1</ele>
        <time>2020-12-18T13:52:14.000Z</time>
      </trkpt>
      <trkpt lat="45.34297" lon="6.07086">
        <ele>1586.68</ele>
        <time>2020-12-18T13:52:24.000Z</time>
      </trkpt>
      <trkpt lat="45.34308" lon="6.0709">
        <ele>1584.11</ele>
        <time>2020-12-18T13:52:34.000Z</time>
      </trkpt>
      <trkpt lat="45.34318" lon="6.07092">
        <ele>1589.63</ele>
        <time>2020-12-18T13:52:44.000Z</time>
      </trkpt>
      <trkpt lat="45.34326" lon="6.07092">
        <ele>1588.72</ele>
        <time>2020-12-18T13:52:54.000Z</time>
      </trkpt>
      <trkpt lat="45.34333" lon="6.07091">
        <ele>1585.96</ele>
        <time>2020-12-18T13:53:04.000Z</time>
      </trkpt>
      <trkpt lat="45.34337" lon="6.07098">
        <ele>1586.01</ele>
        <time>2020-12-18T13:53:14.000Z</time>
      </trkpt>
      <trkpt lat="45.34341" lon="6.07098">
        <ele>1587.17</ele>
        <time>2020-12-18T13:53:24.000Z</time>
      </trkpt>
      <trkpt lat="45.34343" lon="6.07097">
        <ele>1588.16</ele>
        <time>2020-12-18T13:53:34.000Z</time>
      </trkpt>
      <trkpt lat="45.34352" lon="6.07105">
        <ele>1588.67</ele>
        <time>2020-12-18T13:53:44.000Z</time>
      </trkpt>
      <trkpt lat="45.34358" lon="6.0711">
        <ele>1581.5</ele>
        <time>2020-12-18T13:53:54.000Z</time>
      </trkpt>
      <trkpt lat="45.34368" lon="6.07108">
        <ele>1580.57</ele>
        <time>2020-12-18T13:54:04.000Z</time>
      </trkpt>
      <trkpt lat="45.34378" lon="6.07115">
        <ele>1584.5</ele>
        <time>2020-12-18T13:54:14.000Z</time>
      </trkpt>
      <trkpt lat="45.34381" lon="6.07116">
        <ele>1583.22</ele>
        <time>2020-12-18T13:54:24.000Z</time>
      </trkpt>
      <trkpt lat="45.34383" lon="6.07115">
        <ele>1585.4</ele>
        <time>2020-12-18T13:55:11.000Z</time>
      </trkpt>
      <trkpt lat="45.34392" lon="6.07118">
        <ele>1585.41</ele>
        <time>2020-12-18T13:55:21.000Z</time>
      </trkpt>
      <trkpt lat="45.34392" lon="6.07123">
        <ele>1585.95</ele>
        <time>2020-12-18T13:55:31.000Z</time>
      </trkpt>
      <trkpt lat="45.34394" lon="6.07122">
        <ele>1586.74</ele>
        <time>2020-12-18T13:55:41.000Z</time>
      </trkpt>
      <trkpt lat="45.34396" lon="6.07122">
        <ele>1585.97</ele>
        <time>2020-12-18T13:57:51.000Z</time>
      </trkpt>
      <trkpt lat="45.34411" lon="6.07121">
        <ele>1589.81</ele>
        <time>2020-12-18T13:58:01.000Z</time>
      </trkpt>
      <trkpt lat="45.34426" lon="6.07122">
        <ele>1598.14</ele>
        <time>2020-12-18T13:58:11.000Z</time>
      </trkpt>
      <trkpt lat="45.34431" lon="6.07119">
        <ele>1599.56</ele>
        <time>2020-12-18T13:58:21.000Z</time>
      </trkpt>
      <trkpt lat="45.34436" lon="6.07122">
        <ele>1602.32</ele>
        <time>2020-12-18T13:58:31.000Z</time>
      </trkpt>
      <trkpt lat="45.34438" lon="6.07123">
        <ele>1602.03</ele>
        <time>2020-12-18T13:58:41.000Z</time>
      </trkpt>
      <trkpt lat="45.34443" lon="6.07139">
        <ele>1606.74</ele>
        <time>2020-12-18T13:58:51.000Z</time>
      </trkpt>
      <trkpt lat="45.34446" lon="6.07143">
        <ele>1611.06</ele>
        <time>2020-12-18T13:59:01.000Z</time>
      </trkpt>
      <trkpt lat="45.3445" lon="6.07147">
        <ele>1612.06</ele>
        <time>2020-12-18T13:59:11.000Z</time>
      </trkpt>
      <trkpt lat="45.3445" lon="6.07146">
        <ele>1612.64</ele>
        <time>2020-12-18T13:59:56.000Z</time>
      </trkpt>
      <trkpt lat="45.34446" lon="6.0713">
        <ele>1611.08</ele>
        <time>2020-12-18T14:00:06.000Z</time>
      </trkpt>
      <trkpt lat="45.34438" lon="6.07125">
        <ele>1613.76</ele>
        <time>2020-12-18T14:00:16.000Z</time>
      </trkpt>
      <trkpt lat="45.34428" lon="6.07127">
        <ele>1609.49</ele>
        <time>2020-12-18T14:00:26.000Z</time>
      </trkpt>
      <trkpt lat="45.34422" lon="6.07122">
        <ele>1610.91</ele>
        <time>2020-12-18T14:00:36.000Z</time>
      </trkpt>
      <trkpt lat="45.34418" lon="6.07121">
        <ele>1609.99</ele>
        <time>2020-12-18T14:00:46.000Z</time>
      </trkpt>
      <trkpt lat="45.34416" lon="6.07123">
        <ele>1611.8</ele>
        <time>2020-12-18T14:00:56.000Z</time>
      </trkpt>
      <trkpt lat="45.34418" lon="6.07122">
        <ele>1612.22</ele>
        <time>2020-12-18T14:02:48.000Z</time>
      </trkpt>
      <trkpt lat="45.34427" lon="6.07118">
        <ele>1605.9</ele>
        <time>2020-12-18T14:02:58.000Z</time>
      </trkpt>
      <trkpt lat="45.34435" lon="6.07123">
        <ele>1605.6</ele>
        <time>2020-12-18T14:03:08.000Z</time>
      </trkpt>
      <trkpt lat="45.34438" lon="6.07122">
        <ele>1605.2</ele>
        <time>2020-12-18T14:03:18.000Z</time>
      </trkpt>
      <trkpt lat="45.3444" lon="6.07129">
        <ele>1608.21</ele>
        <time>2020-12-18T14:03:28.000Z</time>
      </trkpt>
      <trkpt lat="45.34443" lon="6.07137">
        <ele>1608.74</ele>
        <time>2020-12-18T14:03:38.000Z</time>
      </trkpt>
      <trkpt lat="45.34456" lon="6.07141">
        <ele>1610.25</ele>
        <time>2020-12-18T14:03:48.000Z</time>
      </trkpt>
      <trkpt lat="45.34458" lon="6.07141">
        <ele>1610.07</ele>
        <time>2020-12-18T14:03:58.000Z</time>
      </trkpt>
      <trkpt lat="45.34457" lon="6.0714">
        <ele>1607.36</ele>
        <time>2020-12-18T14:04:31.000Z</time>
      </trkpt>
      <trkpt lat="45.34451" lon="6.07133">
        <ele>1607.36</ele>
        <time>2020-12-18T14:04:41.000Z</time>
      </trkpt>
      <trkpt lat="45.34449" lon="6.07129">
        <ele>1607.45</ele>
        <time>2020-12-18T14:04:51.000Z</time>
      </trkpt>
      <trkpt lat="45.34455" lon="6.07124">
        <ele>1606.32</ele>
        <time>2020-12-18T14:05:01.000Z</time>
      </trkpt>
      <trkpt lat="45.34462" lon="6.07117">
        <ele>1602.56</ele>
        <time>2020-12-18T14:05:11.000Z</time>
      </trkpt>
      <trkpt lat="45.34472" lon="6.0711">
        <ele>1602.29</ele>
        <time>2020-12-18T14:05:21.000Z</time>
      </trkpt>
      <trkpt lat="45.34472" lon="6.07106">
        <ele>1599.71</ele>
        <time>2020-12-18T14:05:31.000Z</time>
      </trkpt>
      <trkpt lat="45.34472" lon="6.07105">
        <ele>1600.63</ele>
        <time>2020-12-18T14:05:44.000Z</time>
      </trkpt>
      <trkpt lat="45.34473" lon="6.07105">
        <ele>1601.01</ele>
        <time>2020-12-18T14:06:13.000Z</time>
      </trkpt>
      <trkpt lat="45.34484" lon="6.071">
        <ele>1602.73</ele>
        <time>2020-12-18T14:06:23.000Z</time>
      </trkpt>
      <trkpt lat="45.34489" lon="6.07096">
        <ele>1603.14</ele>
        <time>2020-12-18T14:06:33.000Z</time>
      </trkpt>
      <trkpt lat="45.34488" lon="6.07097">
        <ele>1604.53</ele>
        <time>2020-12-18T14:09:11.000Z</time>
      </trkpt>
      <trkpt lat="45.34479" lon="6.07105">
        <ele>1603.7</ele>
        <time>2020-12-18T14:09:21.000Z</time>
      </trkpt>
      <trkpt lat="45.34471" lon="6.07109">
        <ele>1600.21</ele>
        <time>2020-12-18T14:09:31.000Z</time>
      </trkpt>
      <trkpt lat="45.34466" lon="6.07113">
        <ele>1598.3</ele>
        <time>2020-12-18T14:09:41.000Z</time>
      </trkpt>
      <trkpt lat="45.34464" lon="6.07113">
        <ele>1598.95</ele>
        <time>2020-12-18T14:09:51.000Z</time>
      </trkpt>
      <trkpt lat="45.34463" lon="6.07114">
        <ele>1598.4</ele>
        <time>2020-12-18T14:10:08.000Z</time>
      </trkpt>
      <trkpt lat="45.34441" lon="6.07114">
        <ele>1599.68</ele>
        <time>2020-12-18T14:10:18.000Z</time>
      </trkpt>
      <trkpt lat="45.34432" lon="6.07109">
        <ele>1603.86</ele>
        <time>2020-12-18T14:10:28.000Z</time>
      </trkpt>
      <trkpt lat="45.34424" lon="6.07115">
        <ele>1602.87</ele>
        <time>2020-12-18T14:10:38.000Z</time>
      </trkpt>
      <trkpt lat="45.34419" lon="6.07119">
        <ele>1603.59</ele>
        <time>2020-12-18T14:11:01.000Z</time>
      </trkpt>
      <trkpt lat="45.34416" lon="6.0712">
        <ele>1605.69</ele>
        <time>2020-12-18T14:11:11.000Z</time>
      </trkpt>
      <trkpt lat="45.34415" lon="6.0712">
        <ele>1606.35</ele>
        <time>2020-12-18T14:11:31.000Z</time>
      </trkpt>
      <trkpt lat="45.34414" lon="6.0712">
        <ele>1606.8</ele>
        <time>2020-12-18T14:12:45.000Z</time>
      </trkpt>
      <trkpt lat="45.34407" lon="6.07119">
        <ele>1601.18</ele>
        <time>2020-12-18T14:12:55.000Z</time>
      </trkpt>
      <trkpt lat="45.34404" lon="6.07117">
        <ele>1600.28</ele>
        <time>2020-12-18T14:13:05.000Z</time>
      </trkpt>
      <trkpt lat="45.34402" lon="6.07117">
        <ele>1600.43</ele>
        <time>2020-12-18T14:17:34.000Z</time>
      </trkpt>
      <trkpt lat="45.34385" lon="6.07117">
        <ele>1601.62</ele>
        <time>2020-12-18T14:17:44.000Z</time>
      </trkpt>
      <trkpt lat="45.34371" lon="6.07115">
        <ele>1597.8</ele>
        <time>2020-12-18T14:17:54.000Z</time>
      </trkpt>
      <trkpt lat="45.34368" lon="6.07116">
        <ele>1595.36</ele>
        <time>2020-12-18T14:18:04.000Z</time>
      </trkpt>
      <trkpt lat="45.34361" lon="6.07109">
        <ele>1596.79</ele>
        <time>2020-12-18T14:18:14.000Z</time>
      </trkpt>
      <trkpt lat="45.34357" lon="6.07106">
        <ele>1596.39</ele>
        <time>2020-12-18T14:18:24.000Z</time>
      </trkpt>
      <trkpt lat="45.34345" lon="6.07101">
        <ele>1590.51</ele>
        <time>2020-12-18T14:18:34.000Z</time>
      </trkpt>
      <trkpt lat="45.34332" lon="6.07101">
        <ele>1589.27</ele>
        <time>2020-12-18T14:18:44.000Z</time>
      </trkpt>
      <trkpt lat="45.34326" lon="6.07094">
        <ele>1588.86</ele>
        <time>2020-12-18T14:18:54.000Z</time>
      </trkpt>
      <trkpt lat="45.34317" lon="6.07094">
        <ele>1589.55</ele>
        <time>2020-12-18T14:19:04.000Z</time>
      </trkpt>
      <trkpt lat="45.34308" lon="6.07091">
        <ele>1590.73</ele>
        <time>2020-12-18T14:19:14.000Z</time>
      </trkpt>
      <trkpt lat="45.34304" lon="6.07083">
        <ele>1593.21</ele>
        <time>2020-12-18T14:19:24.000Z</time>
      </trkpt>
      <trkpt lat="45.34287" lon="6.07086">
        <ele>1595.19</ele>
        <time>2020-12-18T14:19:34.000Z</time>
      </trkpt>
      <trkpt lat="45.34275" lon="6.07082">
        <ele>1596.07</ele>
        <time>2020-12-18T14:19:44.000Z</time>
      </trkpt>
      <trkpt lat="45.34273" lon="6.07073">
        <ele>1595.46</ele>
        <time>2020-12-18T14:19:54.000Z</time>
      </trkpt>
      <trkpt lat="45.34271" lon="6.07072">
        <ele>1594.39</ele>
        <time>2020-12-18T14:20:04.000Z</time>
      </trkpt>
      <trkpt lat="45.34267" lon="6.07073">
        <ele>1595.11</ele>
        <time>2020-12-18T14:20:14.000Z</time>
      </trkpt>
      <trkpt lat="45.34264" lon="6.07072">
        <ele>1594.75</ele>
        <time>2020-12-18T14:20:24.000Z</time>
      </trkpt>
      <trkpt lat="45.34256" lon="6.07078">
        <ele>1590.29</ele>
        <time>2020-12-18T14:20:34.000Z</time>
      </trkpt>
      <trkpt lat="45.34248" lon="6.07079">
        <ele>1586.93</ele>
        <time>2020-12-18T14:20:44.000Z</time>
      </trkpt>
      <trkpt lat="45.34241" lon="6.07085">
        <ele>1586.02</ele>
        <time>2020-12-18T14:20:54.000Z</time>
      </trkpt>
      <trkpt lat="45.34229" lon="6.07083">
        <ele>1592.17</ele>
        <time>2020-12-18T14:21:04.000Z</time>
      </trkpt>
      <trkpt lat="45.34217" lon="6.07084">
        <ele>1587.59</ele>
        <time>2020-12-18T14:21:14.000Z</time>
      </trkpt>
      <trkpt lat="45.34204" lon="6.07081">
        <ele>1590.56</ele>
        <time>2020-12-18T14:21:24.000Z</time>
      </trkpt>
      <trkpt lat="45.34202" lon="6.07076">
        <ele>1589.14</ele>
        <time>2020-12-18T14:21:34.000Z</time>
      </trkpt>
      <trkpt lat="45.342" lon="6.07076">
        <ele>1589.57</ele>
        <time>2020-12-18T14:21:44.000Z</time>
      </trkpt>
      <trkpt lat="45.34199" lon="6.07074">
        <ele>1589.23</ele>
        <time>2020-12-18T14:21:54.000Z</time>
      </trkpt>
      <trkpt lat="45.34197" lon="6.07073">
        <ele>1589.3</ele>
        <time>2020-12-18T14:22:19.000Z</time>
      </trkpt>
      <trkpt lat="45.34184" lon="6.0706">
        <ele>1579.39</ele>
        <time>2020-12-18T14:22:29.000Z</time>
      </trkpt>
      <trkpt lat="45.34178" lon="6.07056">
        <ele>1579.23</ele>
        <time>2020-12-18T14:22:39.000Z</time>
      </trkpt>
      <trkpt lat="45.34175" lon="6.07054">
        <ele>1578.8</ele>
        <time>2020-12-18T14:22:49.000Z</time>
      </trkpt>
      <trkpt lat="45.34165" lon="6.07052">
        <ele>1578.45</ele>
        <time>2020-12-18T14:22:59.000Z</time>
      </trkpt>
      <trkpt lat="45.34153" lon="6.07049">
        <ele>1572.93</ele>
        <time>2020-12-18T14:23:09.000Z</time>
      </trkpt>
      <trkpt lat="45.34143" lon="6.07051">
        <ele>1575.09</ele>
        <time>2020-12-18T14:23:19.000Z</time>
      </trkpt>
      <trkpt lat="45.34134" lon="6.07055">
        <ele>1579.14</ele>
        <time>2020-12-18T14:23:29.000Z</time>
      </trkpt>
      <trkpt lat="45.34127" lon="6.07064">
        <ele>1580.82</ele>
        <time>2020-12-18T14:23:39.000Z</time>
      </trkpt>
      <trkpt lat="45.3412" lon="6.07067">
        <ele>1582.66</ele>
        <time>2020-12-18T14:23:49.000Z</time>
      </trkpt>
      <trkpt lat="45.34109" lon="6.07068">
        <ele>1580.97</ele>
        <time>2020-12-18T14:23:59.000Z</time>
      </trkpt>
      <trkpt lat="45.341" lon="6.0707">
        <ele>1585.44</ele>
        <time>2020-12-18T14:24:09.000Z</time>
      </trkpt>
      <trkpt lat="45.34092" lon="6.07075">
        <ele>1584.16</ele>
        <time>2020-12-18T14:24:19.000Z</time>
      </trkpt>
      <trkpt lat="45.3408" lon="6.07085">
        <ele>1573.45</ele>
        <time>2020-12-18T14:24:29.000Z</time>
      </trkpt>
      <trkpt lat="45.34072" lon="6.07084">
        <ele>1577.12</ele>
        <time>2020-12-18T14:24:39.000Z</time>
      </trkpt>
      <trkpt lat="45.34072" lon="6.07085">
        <ele>1575.69</ele>
        <time>2020-12-18T14:25:04.000Z</time>
      </trkpt>
      <trkpt lat="45.34073" lon="6.07087">
        <ele>1576.85</ele>
        <time>2020-12-18T14:25:15.000Z</time>
      </trkpt>
      <trkpt lat="45.34092" lon="6.07105">
        <ele>1572.72</ele>
        <time>2020-12-18T14:25:25.000Z</time>
      </trkpt>
      <trkpt lat="45.34104" lon="6.07118">
        <ele>1571.23</ele>
        <time>2020-12-18T14:25:35.000Z</time>
      </trkpt>
      <trkpt lat="45.3411" lon="6.07129">
        <ele>1573.06</ele>
        <time>2020-12-18T14:25:45.000Z</time>
      </trkpt>
      <trkpt lat="45.34104" lon="6.07145">
        <ele>1569.66</ele>
        <time>2020-12-18T14:25:55.000Z</time>
      </trkpt>
      <trkpt lat="45.34099" lon="6.07157">
        <ele>1567.78</ele>
        <time>2020-12-18T14:26:05.000Z</time>
      </trkpt>
      <trkpt lat="45.34092" lon="6.07171">
        <ele>1572.38</ele>
        <time>2020-12-18T14:26:15.000Z</time>
      </trkpt>
      <trkpt lat="45.3409" lon="6.07181">
        <ele>1572.32</ele>
        <time>2020-12-18T14:26:25.000Z</time>
      </trkpt>
      <trkpt lat="45.34083" lon="6.07199">
        <ele>1569.99</ele>
        <time>2020-12-18T14:26:35.000Z</time>
      </trkpt>
      <trkpt lat="45.34082" lon="6.07205">
        <ele>1567.64</ele>
        <time>2020-12-18T14:26:45.000Z</time>
      </trkpt>
      <trkpt lat="45.34073" lon="6.07213">
        <ele>1565.44</ele>
        <time>2020-12-18T14:26:55.000Z</time>
      </trkpt>
      <trkpt lat="45.34065" lon="6.07212">
        <ele>1561.74</ele>
        <time>2020-12-18T14:27:05.000Z</time>
      </trkpt>
      <trkpt lat="45.34064" lon="6.07217">
        <ele>1561.45</ele>
        <time>2020-12-18T14:27:15.000Z</time>
      </trkpt>
      <trkpt lat="45.34063" lon="6.07219">
        <ele>1561.1</ele>
        <time>2020-12-18T14:27:25.000Z</time>
      </trkpt>
      <trkpt lat="45.34064" lon="6.07218">
        <ele>1561.98</ele>
        <time>2020-12-18T14:27:36.000Z</time>
      </trkpt>
      <trkpt lat="45.34076" lon="6.0721">
        <ele>1562.14</ele>
        <time>2020-12-18T14:27:46.000Z</time>
      </trkpt>
      <trkpt lat="45.34091" lon="6.07199">
        <ele>1561.47</ele>
        <time>2020-12-18T14:27:56.000Z</time>
      </trkpt>
      <trkpt lat="45.34095" lon="6.07186">
        <ele>1562.22</ele>
        <time>2020-12-18T14:28:06.000Z</time>
      </trkpt>
      <trkpt lat="45.34096" lon="6.07174">
        <ele>1560.72</ele>
        <time>2020-12-18T14:28:16.000Z</time>
      </trkpt>
      <trkpt lat="45.34105" lon="6.07162">
        <ele>1562.85</ele>
        <time>2020-12-18T14:28:26.000Z</time>
      </trkpt>
      <trkpt lat="45.3411" lon="6.07163">
        <ele>1561.12</ele>
        <time>2020-12-18T14:28:36.000Z</time>
      </trkpt>
      <trkpt lat="45.34112" lon="6.07158">
        <ele>1560.86</ele>
        <time>2020-12-18T14:28:46.000Z</time>
      </trkpt>
      <trkpt lat="45.3411" lon="6.07158">
        <ele>1561.19</ele>
        <time>2020-12-18T14:28:56.000Z</time>
      </trkpt>
      <trkpt lat="45.34111" lon="6.0716">
        <ele>1561.56</ele>
        <time>2020-12-18T14:29:18.000Z</time>
      </trkpt>
      <trkpt lat="45.34111" lon="6.07174">
        <ele>1556.16</ele>
        <time>2020-12-18T14:29:28.000Z</time>
      </trkpt>
      <trkpt lat="45.34113" lon="6.07187">
        <ele>1553.12</ele>
        <time>2020-12-18T14:29:38.000Z</time>
      </trkpt>
      <trkpt lat="45.3412" lon="6.07202">
        <ele>1554.21</ele>
        <time>2020-12-18T14:29:48.000Z</time>
      </trkpt>
      <trkpt lat="45.34121" lon="6.07214">
        <ele>1556.19</ele>
        <time>2020-12-18T14:29:58.000Z</time>
      </trkpt>
      <trkpt lat="45.3413" lon="6.07221">
        <ele>1556.39</ele>
        <time>2020-12-18T14:30:08.000Z</time>
      </trkpt>
      <trkpt lat="45.3414" lon="6.07232">
        <ele>1552.51</ele>
        <time>2020-12-18T14:30:18.000Z</time>
      </trkpt>
      <trkpt lat="45.34135" lon="6.07229">
        <ele>1554.57</ele>
        <time>2020-12-18T14:30:28.000Z</time>
      </trkpt>
      <trkpt lat="45.34135" lon="6.07226">
        <ele>1554.77</ele>
        <time>2020-12-18T14:30:38.000Z</time>
      </trkpt>
      <trkpt lat="45.34136" lon="6.07227">
        <ele>1555.98</ele>
        <time>2020-12-18T14:30:48.000Z</time>
      </trkpt>
      <trkpt lat="45.34138" lon="6.07227">
        <ele>1556.83</ele>
        <time>2020-12-18T14:30:59.000Z</time>
      </trkpt>
      <trkpt lat="45.34148" lon="6.07216">
        <ele>1556.44</ele>
        <time>2020-12-18T14:31:09.000Z</time>
      </trkpt>
      <trkpt lat="45.34158" lon="6.07205">
        <ele>1563.41</ele>
        <time>2020-12-18T14:31:19.000Z</time>
      </trkpt>
      <trkpt lat="45.34166" lon="6.07199">
        <ele>1564.25</ele>
        <time>2020-12-18T14:31:29.000Z</time>
      </trkpt>
      <trkpt lat="45.34175" lon="6.07198">
        <ele>1559.42</ele>
        <time>2020-12-18T14:31:39.000Z</time>
      </trkpt>
      <trkpt lat="45.34181" lon="6.07196">
        <ele>1559.45</ele>
        <time>2020-12-18T14:31:49.000Z</time>
      </trkpt>
      <trkpt lat="45.34191" lon="6.07201">
        <ele>1561</ele>
        <time>2020-12-18T14:31:59.000Z</time>
      </trkpt>
      <trkpt lat="45.34192" lon="6.0721">
        <ele>1555.83</ele>
        <time>2020-12-18T14:32:09.000Z</time>
      </trkpt>
      <trkpt lat="45.34196" lon="6.07221">
        <ele>1559.56</ele>
        <time>2020-12-18T14:32:19.000Z</time>
      </trkpt>
      <trkpt lat="45.34201" lon="6.07235">
        <ele>1558.09</ele>
        <time>2020-12-18T14:32:29.000Z</time>
      </trkpt>
      <trkpt lat="45.34212" lon="6.07247">
        <ele>1559.39</ele>
        <time>2020-12-18T14:32:39.000Z</time>
      </trkpt>
      <trkpt lat="45.34213" lon="6.07259">
        <ele>1556.88</ele>
        <time>2020-12-18T14:32:49.000Z</time>
      </trkpt>
      <trkpt lat="45.3422" lon="6.07266">
        <ele>1557.9</ele>
        <time>2020-12-18T14:32:59.000Z</time>
      </trkpt>
      <trkpt lat="45.34225" lon="6.07276">
        <ele>1557.18</ele>
        <time>2020-12-18T14:33:09.000Z</time>
      </trkpt>
      <trkpt lat="45.34237" lon="6.07283">
        <ele>1556.55</ele>
        <time>2020-12-18T14:33:19.000Z</time>
      </trkpt>
      <trkpt lat="45.34245" lon="6.07294">
        <ele>1558.02</ele>
        <time>2020-12-18T14:33:29.000Z</time>
      </trkpt>
      <trkpt lat="45.34256" lon="6.07299">
        <ele>1553.84</ele>
        <time>2020-12-18T14:33:39.000Z</time>
      </trkpt>
      <trkpt lat="45.34266" lon="6.07302">
        <ele>1546.25</ele>
        <time>2020-12-18T14:33:49.000Z</time>
      </trkpt>
      <trkpt lat="45.3428" lon="6.07302">
        <ele>1548.98</ele>
        <time>2020-12-18T14:33:59.000Z</time>
      </trkpt>
      <trkpt lat="45.34288" lon="6.07306">
        <ele>1543.34</ele>
        <time>2020-12-18T14:34:09.000Z</time>
      </trkpt>
      <trkpt lat="45.34295" lon="6.07312">
        <ele>1541.45</ele>
        <time>2020-12-18T14:34:19.000Z</time>
      </trkpt>
      <trkpt lat="45.34303" lon="6.07315">
        <ele>1542.49</ele>
        <time>2020-12-18T14:34:29.000Z</time>
      </trkpt>
      <trkpt lat="45.34311" lon="6.07317">
        <ele>1545.26</ele>
        <time>2020-12-18T14:34:39.000Z</time>
      </trkpt>
      <trkpt lat="45.34321" lon="6.07318">
        <ele>1544.25</ele>
        <time>2020-12-18T14:34:49.000Z</time>
      </trkpt>
      <trkpt lat="45.34333" lon="6.07319">
        <ele>1546.11</ele>
        <time>2020-12-18T14:34:59.000Z</time>
      </trkpt>
      <trkpt lat="45.34345" lon="6.07318">
        <ele>1546.74</ele>
        <time>2020-12-18T14:35:09.000Z</time>
      </trkpt>
      <trkpt lat="45.34356" lon="6.07321">
        <ele>1546.92</ele>
        <time>2020-12-18T14:35:19.000Z</time>
      </trkpt>
      <trkpt lat="45.34364" lon="6.07323">
        <ele>1542.37</ele>
        <time>2020-12-18T14:35:29.000Z</time>
      </trkpt>
      <trkpt lat="45.3437" lon="6.07329">
        <ele>1541.83</ele>
        <time>2020-12-18T14:35:39.000Z</time>
      </trkpt>
      <trkpt lat="45.34379" lon="6.07339">
        <ele>1534.75</ele>
        <time>2020-12-18T14:35:49.000Z</time>
      </trkpt>
      <trkpt lat="45.34388" lon="6.07344">
        <ele>1532.71</ele>
        <time>2020-12-18T14:35:59.000Z</time>
      </trkpt>
      <trkpt lat="45.34395" lon="6.07354">
        <ele>1529.56</ele>
        <time>2020-12-18T14:36:09.000Z</time>
      </trkpt>
      <trkpt lat="45.34405" lon="6.0736">
        <ele>1526.94</ele>
        <time>2020-12-18T14:36:21.000Z</time>
      </trkpt>
      <trkpt lat="45.34412" lon="6.07374">
        <ele>1531.32</ele>
        <time>2020-12-18T14:36:31.000Z</time>
      </trkpt>
      <trkpt lat="45.34419" lon="6.07373">
        <ele>1537.67</ele>
        <time>2020-12-18T14:36:41.000Z</time>
      </trkpt>
      <trkpt lat="45.34426" lon="6.07376">
        <ele>1536.65</ele>
        <time>2020-12-18T14:36:51.000Z</time>
      </trkpt>
      <trkpt lat="45.34437" lon="6.07381">
        <ele>1537.72</ele>
        <time>2020-12-18T14:37:01.000Z</time>
      </trkpt>
      <trkpt lat="45.34444" lon="6.07387">
        <ele>1534.39</ele>
        <time>2020-12-18T14:37:11.000Z</time>
      </trkpt>
      <trkpt lat="45.34454" lon="6.07382">
        <ele>1532.13</ele>
        <time>2020-12-18T14:37:21.000Z</time>
      </trkpt>
      <trkpt lat="45.34463" lon="6.07381">
        <ele>1530.7</ele>
        <time>2020-12-18T14:37:31.000Z</time>
      </trkpt>
      <trkpt lat="45.34477" lon="6.07379">
        <ele>1531.15</ele>
        <time>2020-12-18T14:37:41.000Z</time>
      </trkpt>
      <trkpt lat="45.34494" lon="6.07378">
        <ele>1532.83</ele>
        <time>2020-12-18T14:37:51.000Z</time>
      </trkpt>
      <trkpt lat="45.34505" lon="6.07381">
        <ele>1539.66</ele>
        <time>2020-12-18T14:38:01.000Z</time>
      </trkpt>
      <trkpt lat="45.34511" lon="6.07381">
        <ele>1533.27</ele>
        <time>2020-12-18T14:38:11.000Z</time>
      </trkpt>
      <trkpt lat="45.34514" lon="6.07376">
        <ele>1528.83</ele>
        <time>2020-12-18T14:38:21.000Z</time>
      </trkpt>
      <trkpt lat="45.34523" lon="6.07373">
        <ele>1527.34</ele>
        <time>2020-12-18T14:38:31.000Z</time>
      </trkpt>
      <trkpt lat="45.34533" lon="6.07367">
        <ele>1523.83</ele>
        <time>2020-12-18T14:38:41.000Z</time>
      </trkpt>
      <trkpt lat="45.34544" lon="6.07365">
        <ele>1523.23</ele>
        <time>2020-12-18T14:38:51.000Z</time>
      </trkpt>
      <trkpt lat="45.34547" lon="6.07362">
        <ele>1524.69</ele>
        <time>2020-12-18T14:39:01.000Z</time>
      </trkpt>
      <trkpt lat="45.34551" lon="6.0736">
        <ele>1526.86</ele>
        <time>2020-12-18T14:39:11.000Z</time>
      </trkpt>
      <trkpt lat="45.34554" lon="6.07361">
        <ele>1528.94</ele>
        <time>2020-12-18T14:39:21.000Z</time>
      </trkpt>
      <trkpt lat="45.34555" lon="6.0736">
        <ele>1528.52</ele>
        <time>2020-12-18T14:39:38.000Z</time>
      </trkpt>
      <trkpt lat="45.34572" lon="6.07346">
        <ele>1523.79</ele>
        <time>2020-12-18T14:39:48.000Z</time>
      </trkpt>
      <trkpt lat="45.34591" lon="6.07344">
        <ele>1521.13</ele>
        <time>2020-12-18T14:39:58.000Z</time>
      </trkpt>
      <trkpt lat="45.34604" lon="6.0734">
        <ele>1518.38</ele>
        <time>2020-12-18T14:40:08.000Z</time>
      </trkpt>
      <trkpt lat="45.34614" lon="6.07338">
        <ele>1515.16</ele>
        <time>2020-12-18T14:40:18.000Z</time>
      </trkpt>
      <trkpt lat="45.34626" lon="6.07329">
        <ele>1513.24</ele>
        <time>2020-12-18T14:40:28.000Z</time>
      </trkpt>
      <trkpt lat="45.34635" lon="6.07329">
        <ele>1516.34</ele>
        <time>2020-12-18T14:40:38.000Z</time>
      </trkpt>
      <trkpt lat="45.34644" lon="6.07331">
        <ele>1512.32</ele>
        <time>2020-12-18T14:40:48.000Z</time>
      </trkpt>
      <trkpt lat="45.34658" lon="6.07333">
        <ele>1508.28</ele>
        <time>2020-12-18T14:40:58.000Z</time>
      </trkpt>
      <trkpt lat="45.34671" lon="6.07335">
        <ele>1510.82</ele>
        <time>2020-12-18T14:41:08.000Z</time>
      </trkpt>
      <trkpt lat="45.34676" lon="6.07332">
        <ele>1508.47</ele>
        <time>2020-12-18T14:41:18.000Z</time>
      </trkpt>
      <trkpt lat="45.34682" lon="6.0733">
        <ele>1502.84</ele>
        <time>2020-12-18T14:41:28.000Z</time>
      </trkpt>
      <trkpt lat="45.34689" lon="6.07326">
        <ele>1500.07</ele>
        <time>2020-12-18T14:41:38.000Z</time>
      </trkpt>
      <trkpt lat="45.34698" lon="6.07323">
        <ele>1497.2</ele>
        <time>2020-12-18T14:41:48.000Z</time>
      </trkpt>
      <trkpt lat="45.34706" lon="6.07316">
        <ele>1493.68</ele>
        <time>2020-12-18T14:41:58.000Z</time>
      </trkpt>
      <trkpt lat="45.34711" lon="6.07304">
        <ele>1493.1</ele>
        <time>2020-12-18T14:42:08.000Z</time>
      </trkpt>
      <trkpt lat="45.34723" lon="6.07292">
        <ele>1498.93</ele>
        <time>2020-12-18T14:42:18.000Z</time>
      </trkpt>
      <trkpt lat="45.34728" lon="6.07278">
        <ele>1500.18</ele>
        <time>2020-12-18T14:42:28.000Z</time>
      </trkpt>
      <trkpt lat="45.34733" lon="6.07274">
        <ele>1497.98</ele>
        <time>2020-12-18T14:42:38.000Z</time>
      </trkpt>
      <trkpt lat="45.34743" lon="6.07268">
        <ele>1495.34</ele>
        <time>2020-12-18T14:42:48.000Z</time>
      </trkpt>
      <trkpt lat="45.34753" lon="6.07264">
        <ele>1497.69</ele>
        <time>2020-12-18T14:42:58.000Z</time>
      </trkpt>
      <trkpt lat="45.34761" lon="6.07268">
        <ele>1501.12</ele>
        <time>2020-12-18T14:43:08.000Z</time>
      </trkpt>
      <trkpt lat="45.3477" lon="6.07275">
        <ele>1497.83</ele>
        <time>2020-12-18T14:43:18.000Z</time>
      </trkpt>
      <trkpt lat="45.34777" lon="6.07282">
        <ele>1495.52</ele>
        <time>2020-12-18T14:43:28.000Z</time>
      </trkpt>
      <trkpt lat="45.34787" lon="6.07283">
        <ele>1495.32</ele>
        <time>2020-12-18T14:43:39.000Z</time>
      </trkpt>
      <trkpt lat="45.34792" lon="6.07283">
        <ele>1492.21</ele>
        <time>2020-12-18T14:43:49.000Z</time>
      </trkpt>
      <trkpt lat="45.3479" lon="6.07283">
        <ele>1491.27</ele>
        <time>2020-12-18T14:43:59.000Z</time>
      </trkpt>
      <trkpt lat="45.34791" lon="6.07282">
        <ele>1491.55</ele>
        <time>2020-12-18T14:44:09.000Z</time>
      </trkpt>
      <trkpt lat="45.34802" lon="6.0729">
        <ele>1488.74</ele>
        <time>2020-12-18T14:44:19.000Z</time>
      </trkpt>
      <trkpt lat="45.34813" lon="6.07296">
        <ele>1488.19</ele>
        <time>2020-12-18T14:44:29.000Z</time>
      </trkpt>
      <trkpt lat="45.34831" lon="6.07305">
        <ele>1497.05</ele>
        <time>2020-12-18T14:44:39.000Z</time>
      </trkpt>
      <trkpt lat="45.34843" lon="6.07315">
        <ele>1496.71</ele>
        <time>2020-12-18T14:44:49.000Z</time>
      </trkpt>
      <trkpt lat="45.3485" lon="6.07314">
        <ele>1496.83</ele>
        <time>2020-12-18T14:44:59.000Z</time>
      </trkpt>
      <trkpt lat="45.34859" lon="6.07316">
        <ele>1494.1</ele>
        <time>2020-12-18T14:45:09.000Z</time>
      </trkpt>
      <trkpt lat="45.34871" lon="6.07317">
        <ele>1495.6</ele>
        <time>2020-12-18T14:45:19.000Z</time>
      </trkpt>
      <trkpt lat="45.34881" lon="6.0732">
        <ele>1498.16</ele>
        <time>2020-12-18T14:45:29.000Z</time>
      </trkpt>
      <trkpt lat="45.34893" lon="6.0732">
        <ele>1497.25</ele>
        <time>2020-12-18T14:45:39.000Z</time>
      </trkpt>
      <trkpt lat="45.349" lon="6.07326">
        <ele>1493.65</ele>
        <time>2020-12-18T14:45:49.000Z</time>
      </trkpt>
      <trkpt lat="45.34904" lon="6.07331">
        <ele>1496.31</ele>
        <time>2020-12-18T14:45:59.000Z</time>
      </trkpt>
      <trkpt lat="45.34908" lon="6.07337">
        <ele>1494.7</ele>
        <time>2020-12-18T14:46:09.000Z</time>
      </trkpt>
      <trkpt lat="45.34913" lon="6.07339">
        <ele>1487.22</ele>
        <time>2020-12-18T14:46:19.000Z</time>
      </trkpt>
      <trkpt lat="45.34924" lon="6.07342">
        <ele>1484.62</ele>
        <time>2020-12-18T14:46:29.000Z</time>
      </trkpt>
      <trkpt lat="45.3493" lon="6.07348">
        <ele>1483.53</ele>
        <time>2020-12-18T14:46:39.000Z</time>
      </trkpt>
      <trkpt lat="45.34944" lon="6.07346">
        <ele>1483.45</ele>
        <time>2020-12-18T14:46:49.000Z</time>
      </trkpt>
      <trkpt lat="45.34955" lon="6.07351">
        <ele>1481.06</ele>
        <time>2020-12-18T14:46:59.000Z</time>
      </trkpt>
      <trkpt lat="45.34958" lon="6.0736">
        <ele>1481.18</ele>
        <time>2020-12-18T14:47:09.000Z</time>
      </trkpt>
      <trkpt lat="45.34969" lon="6.07367">
        <ele>1479.12</ele>
        <time>2020-12-18T14:47:19.000Z</time>
      </trkpt>
      <trkpt lat="45.34972" lon="6.07383">
        <ele>1478.66</ele>
        <time>2020-12-18T14:47:30.000Z</time>
      </trkpt>
      <trkpt lat="45.34977" lon="6.07396">
        <ele>1469.45</ele>
        <time>2020-12-18T14:47:40.000Z</time>
      </trkpt>
      <trkpt lat="45.34986" lon="6.07401">
        <ele>1463.91</ele>
        <time>2020-12-18T14:47:50.000Z</time>
      </trkpt>
      <trkpt lat="45.34981" lon="6.07402">
        <ele>1464.69</ele>
        <time>2020-12-18T14:48:00.000Z</time>
      </trkpt>
      <trkpt lat="45.34988" lon="6.07407">
        <ele>1461.59</ele>
        <time>2020-12-18T14:48:10.000Z</time>
      </trkpt>
      <trkpt lat="45.35" lon="6.07411">
        <ele>1461.09</ele>
        <time>2020-12-18T14:48:20.000Z</time>
      </trkpt>
      <trkpt lat="45.35018" lon="6.07417">
        <ele>1458.76</ele>
        <time>2020-12-18T14:48:32.000Z</time>
      </trkpt>
      <trkpt lat="45.35014" lon="6.07433">
        <ele>1458.33</ele>
        <time>2020-12-18T14:48:42.000Z</time>
      </trkpt>
      <trkpt lat="45.35026" lon="6.07433">
        <ele>1453.63</ele>
        <time>2020-12-18T14:48:52.000Z</time>
      </trkpt>
      <trkpt lat="45.35038" lon="6.07437">
        <ele>1449.71</ele>
        <time>2020-12-18T14:49:02.000Z</time>
      </trkpt>
      <trkpt lat="45.35045" lon="6.07438">
        <ele>1449.99</ele>
        <time>2020-12-18T14:49:12.000Z</time>
      </trkpt>
      <trkpt lat="45.35053" lon="6.0746">
        <ele>1451.37</ele>
        <time>2020-12-18T14:49:22.000Z</time>
      </trkpt>
      <trkpt lat="45.35061" lon="6.07481">
        <ele>1452.65</ele>
        <time>2020-12-18T14:49:32.000Z</time>
      </trkpt>
      <trkpt lat="45.35064" lon="6.07488">
        <ele>1449.04</ele>
        <time>2020-12-18T14:49:42.000Z</time>
      </trkpt>
      <trkpt lat="45.3507" lon="6.07494">
        <ele>1434.68</ele>
        <time>2020-12-18T14:49:57.000Z</time>
      </trkpt>
      <trkpt lat="45.35076" lon="6.07512">
        <ele>1428.49</ele>
        <time>2020-12-18T14:50:07.000Z</time>
      </trkpt>
      <trkpt lat="45.35085" lon="6.07517">
        <ele>1426.49</ele>
        <time>2020-12-18T14:50:17.000Z</time>
      </trkpt>
      <trkpt lat="45.35087" lon="6.07516">
        <ele>1423.31</ele>
        <time>2020-12-18T14:50:27.000Z</time>
      </trkpt>
      <trkpt lat="45.35105" lon="6.07557">
        <ele>1415.71</ele>
        <time>2020-12-18T14:50:44.000Z</time>
      </trkpt>
      <trkpt lat="45.35176" lon="6.07624">
        <ele>1411.64</ele>
        <time>2020-12-18T14:52:01.000Z</time>
      </trkpt>
      <trkpt lat="45.35203" lon="6.07654">
        <ele>1403.95</ele>
        <time>2020-12-18T14:52:36.000Z</time>
      </trkpt>
      <trkpt lat="45.352" lon="6.07676">
        <ele>1406.36</ele>
        <time>2020-12-18T14:52:47.000Z</time>
      </trkpt>
      <trkpt lat="45.35208" lon="6.07683">
        <ele>1409.76</ele>
        <time>2020-12-18T14:52:57.000Z</time>
      </trkpt>
      <trkpt lat="45.35284" lon="6.07731">
        <ele>1390.11</ele>
        <time>2020-12-18T14:54:17.000Z</time>
      </trkpt>
      <trkpt lat="45.35286" lon="6.07739">
        <ele>1381.2</ele>
        <time>2020-12-18T14:54:27.000Z</time>
      </trkpt>
      <trkpt lat="45.35291" lon="6.07748">
        <ele>1379.24</ele>
        <time>2020-12-18T14:54:37.000Z</time>
      </trkpt>
      <trkpt lat="45.35296" lon="6.07761">
        <ele>1378.59</ele>
        <time>2020-12-18T14:54:47.000Z</time>
      </trkpt>
      <trkpt lat="45.35293" lon="6.07752">
        <ele>1375.77</ele>
        <time>2020-12-18T14:54:57.000Z</time>
      </trkpt>
      <trkpt lat="45.35296" lon="6.07749">
        <ele>1375.27</ele>
        <time>2020-12-18T14:55:07.000Z</time>
      </trkpt>
      <trkpt lat="45.35302" lon="6.07749">
        <ele>1376.02</ele>
        <time>2020-12-18T14:55:17.000Z</time>
      </trkpt>
      <trkpt lat="45.35301" lon="6.07752">
        <ele>1374.92</ele>
        <time>2020-12-18T14:55:27.000Z</time>
      </trkpt>
      <trkpt lat="45.35302" lon="6.07753">
        <ele>1374.98</ele>
        <time>2020-12-18T14:55:37.000Z</time>
      </trkpt>
      <trkpt lat="45.35302" lon="6.07754">
        <ele>1375.19</ele>
        <time>2020-12-18T14:56:09.000Z</time>
      </trkpt>
      <trkpt lat="45.35306" lon="6.07757">
        <ele>1374.55</ele>
        <time>2020-12-18T14:56:49.000Z</time>
      </trkpt>
      <trkpt lat="45.35354" lon="6.07778">
        <ele>1357.31</ele>
        <time>2020-12-18T14:57:02.000Z</time>
      </trkpt>
      <trkpt lat="45.35366" lon="6.0782">
        <ele>1368.51</ele>
        <time>2020-12-18T14:57:30.000Z</time>
      </trkpt>
      <trkpt lat="45.35384" lon="6.07832">
        <ele>1373.32</ele>
        <time>2020-12-18T14:57:40.000Z</time>
      </trkpt>
      <trkpt lat="45.35397" lon="6.07839">
        <ele>1370.37</ele>
        <time>2020-12-18T14:58:11.000Z</time>
      </trkpt>
      <trkpt lat="45.35388" lon="6.07858">
        <ele>1373.88</ele>
        <time>2020-12-18T14:58:32.000Z</time>
      </trkpt>
      <trkpt lat="45.35389" lon="6.07857">
        <ele>1381.47</ele>
        <time>2020-12-18T14:58:54.000Z</time>
      </trkpt>
      <trkpt lat="45.3539" lon="6.07857">
        <ele>1380.93</ele>
        <time>2020-12-18T14:59:10.000Z</time>
      </trkpt>
      <trkpt lat="45.3539" lon="6.0786">
        <ele>1381.03</ele>
        <time>2020-12-18T15:03:54.000Z</time>
      </trkpt>
      <trkpt lat="45.35401" lon="6.07904">
        <ele>1379.35</ele>
        <time>2020-12-18T15:04:04.000Z</time>
      </trkpt>
      <trkpt lat="45.35446" lon="6.07948">
        <ele>1367.75</ele>
        <time>2020-12-18T15:04:27.000Z</time>
      </trkpt>
      <trkpt lat="45.35464" lon="6.0794">
        <ele>1361.61</ele>
        <time>2020-12-18T15:04:37.000Z</time>
      </trkpt>
      <trkpt lat="45.35468" lon="6.07959">
        <ele>1357.45</ele>
        <time>2020-12-18T15:04:47.000Z</time>
      </trkpt>
      <trkpt lat="45.35554" lon="6.08008">
        <ele>1349.66</ele>
        <time>2020-12-18T15:06:13.000Z</time>
      </trkpt>
      <trkpt lat="45.35576" lon="6.08025">
        <ele>1341.96</ele>
        <time>2020-12-18T15:06:34.000Z</time>
      </trkpt>
      <trkpt lat="45.35591" lon="6.08025">
        <ele>1330.18</ele>
        <time>2020-12-18T15:06:44.000Z</time>
      </trkpt>
      <trkpt lat="45.35597" lon="6.08033">
        <ele>1332.97</ele>
        <time>2020-12-18T15:06:54.000Z</time>
      </trkpt>
      <trkpt lat="45.35601" lon="6.08029">
        <ele>1321.62</ele>
        <time>2020-12-18T15:07:04.000Z</time>
      </trkpt>
      <trkpt lat="45.35616" lon="6.08018">
        <ele>1320.35</ele>
        <time>2020-12-18T15:07:14.000Z</time>
      </trkpt>
      <trkpt lat="45.35617" lon="6.08026">
        <ele>1310.96</ele>
        <time>2020-12-18T15:07:24.000Z</time>
      </trkpt>
      <trkpt lat="45.35616" lon="6.08037">
        <ele>1309.47</ele>
        <time>2020-12-18T15:07:34.000Z</time>
      </trkpt>
      <trkpt lat="45.35633" lon="6.08058">
        <ele>1314.13</ele>
        <time>2020-12-18T15:07:47.000Z</time>
      </trkpt>
      <trkpt lat="45.35648" lon="6.08064">
        <ele>1308.2</ele>
        <time>2020-12-18T15:07:57.000Z</time>
      </trkpt>
      <trkpt lat="45.35663" lon="6.08058">
        <ele>1302.76</ele>
        <time>2020-12-18T15:08:07.000Z</time>
      </trkpt>
      <trkpt lat="45.35675" lon="6.08058">
        <ele>1299.29</ele>
        <time>2020-12-18T15:08:17.000Z</time>
      </trkpt>
      <trkpt lat="45.35684" lon="6.08071">
        <ele>1299.15</ele>
        <time>2020-12-18T15:08:27.000Z</time>
      </trkpt>
      <trkpt lat="45.35698" lon="6.08074">
        <ele>1294.87</ele>
        <time>2020-12-18T15:08:37.000Z</time>
      </trkpt>
      <trkpt lat="45.35703" lon="6.08082">
        <ele>1288.63</ele>
        <time>2020-12-18T15:08:47.000Z</time>
      </trkpt>
      <trkpt lat="45.35715" lon="6.08086">
        <ele>1289.92</ele>
        <time>2020-12-18T15:08:57.000Z</time>
      </trkpt>
      <trkpt lat="45.35727" lon="6.08088">
        <ele>1289.32</ele>
        <time>2020-12-18T15:09:07.000Z</time>
      </trkpt>
      <trkpt lat="45.3573" lon="6.08097">
        <ele>1279.72</ele>
        <time>2020-12-18T15:09:17.000Z</time>
      </trkpt>
      <trkpt lat="45.3574" lon="6.08106">
        <ele>1277.15</ele>
        <time>2020-12-18T15:09:27.000Z</time>
      </trkpt>
      <trkpt lat="45.35754" lon="6.08118">
        <ele>1274.32</ele>
        <time>2020-12-18T15:09:37.000Z</time>
      </trkpt>
      <trkpt lat="45.3576" lon="6.08122">
        <ele>1270.84</ele>
        <time>2020-12-18T15:09:47.000Z</time>
      </trkpt>
      <trkpt lat="45.35772" lon="6.08121">
        <ele>1269.01</ele>
        <time>2020-12-18T15:09:57.000Z</time>
      </trkpt>
      <trkpt lat="45.35784" lon="6.08122">
        <ele>1266.74</ele>
        <time>2020-12-18T15:10:07.000Z</time>
      </trkpt>
      <trkpt lat="45.35795" lon="6.08129">
        <ele>1265.64</ele>
        <time>2020-12-18T15:10:17.000Z</time>
      </trkpt>
      <trkpt lat="45.35805" lon="6.08134">
        <ele>1266.09</ele>
        <time>2020-12-18T15:10:27.000Z</time>
      </trkpt>
      <trkpt lat="45.35814" lon="6.08129">
        <ele>1262.53</ele>
        <time>2020-12-18T15:10:37.000Z</time>
      </trkpt>
      <trkpt lat="45.35833" lon="6.0813">
        <ele>1261.31</ele>
        <time>2020-12-18T15:10:47.000Z</time>
      </trkpt>
      <trkpt lat="45.35839" lon="6.08142">
        <ele>1263.86</ele>
        <time>2020-12-18T15:10:57.000Z</time>
      </trkpt>
      <trkpt lat="45.35849" lon="6.08152">
        <ele>1262.57</ele>
        <time>2020-12-18T15:11:07.000Z</time>
      </trkpt>
      <trkpt lat="45.35858" lon="6.08157">
        <ele>1257.94</ele>
        <time>2020-12-18T15:11:17.000Z</time>
      </trkpt>
      <trkpt lat="45.35872" lon="6.08156">
        <ele>1257.76</ele>
        <time>2020-12-18T15:11:27.000Z</time>
      </trkpt>
      <trkpt lat="45.35883" lon="6.08162">
        <ele>1257.29</ele>
        <time>2020-12-18T15:11:37.000Z</time>
      </trkpt>
      <trkpt lat="45.35899" lon="6.0816">
        <ele>1247.06</ele>
        <time>2020-12-18T15:11:54.000Z</time>
      </trkpt>
      <trkpt lat="45.3591" lon="6.08144">
        <ele>1243.96</ele>
        <time>2020-12-18T15:12:04.000Z</time>
      </trkpt>
      <trkpt lat="45.35917" lon="6.0814">
        <ele>1237.59</ele>
        <time>2020-12-18T15:12:14.000Z</time>
      </trkpt>
      <trkpt lat="45.35931" lon="6.08153">
        <ele>1228.8</ele>
        <time>2020-12-18T15:12:24.000Z</time>
      </trkpt>
      <trkpt lat="45.35942" lon="6.08152">
        <ele>1229.15</ele>
        <time>2020-12-18T15:12:34.000Z</time>
      </trkpt>
      <trkpt lat="45.35956" lon="6.08153">
        <ele>1233.75</ele>
        <time>2020-12-18T15:12:44.000Z</time>
      </trkpt>
      <trkpt lat="45.35968" lon="6.08162">
        <ele>1234.81</ele>
        <time>2020-12-18T15:12:54.000Z</time>
      </trkpt>
      <trkpt lat="45.35981" lon="6.08172">
        <ele>1230.83</ele>
        <time>2020-12-18T15:13:04.000Z</time>
      </trkpt>
      <trkpt lat="45.36002" lon="6.08168">
        <ele>1236.58</ele>
        <time>2020-12-18T15:13:24.000Z</time>
      </trkpt>
      <trkpt lat="45.36009" lon="6.08168">
        <ele>1233.89</ele>
        <time>2020-12-18T15:13:34.000Z</time>
      </trkpt>
      <trkpt lat="45.3602" lon="6.08167">
        <ele>1226.56</ele>
        <time>2020-12-18T15:13:44.000Z</time>
      </trkpt>
      <trkpt lat="45.36028" lon="6.0817">
        <ele>1237.35</ele>
        <time>2020-12-18T15:13:54.000Z</time>
      </trkpt>
      <trkpt lat="45.36035" lon="6.08167">
        <ele>1239.56</ele>
        <time>2020-12-18T15:14:04.000Z</time>
      </trkpt>
      <trkpt lat="45.36034" lon="6.08168">
        <ele>1242.52</ele>
        <time>2020-12-18T15:14:16.000Z</time>
      </trkpt>
      <trkpt lat="45.36037" lon="6.08172">
        <ele>1244.38</ele>
        <time>2020-12-18T15:14:26.000Z</time>
      </trkpt>
      <trkpt lat="45.36035" lon="6.08171">
        <ele>1241.3</ele>
        <time>2020-12-18T15:14:36.000Z</time>
      </trkpt>
      <trkpt lat="45.36044" lon="6.08165">
        <ele>1232.55</ele>
        <time>2020-12-18T15:14:46.000Z</time>
      </trkpt>
      <trkpt lat="45.36053" lon="6.08158">
        <ele>1225.32</ele>
        <time>2020-12-18T15:14:56.000Z</time>
      </trkpt>
      <trkpt lat="45.36055" lon="6.08152">
        <ele>1220.35</ele>
        <time>2020-12-18T15:15:06.000Z</time>
      </trkpt>
      <trkpt lat="45.36066" lon="6.08147">
        <ele>1221.82</ele>
        <time>2020-12-18T15:15:16.000Z</time>
      </trkpt>
      <trkpt lat="45.36077" lon="6.08147">
        <ele>1220.32</ele>
        <time>2020-12-18T15:15:26.000Z</time>
      </trkpt>
      <trkpt lat="45.36086" lon="6.08155">
        <ele>1217.68</ele>
        <time>2020-12-18T15:15:36.000Z</time>
      </trkpt>
      <trkpt lat="45.36093" lon="6.08159">
        <ele>1210.87</ele>
        <time>2020-12-18T15:15:46.000Z</time>
      </trkpt>
      <trkpt lat="45.36103" lon="6.08163">
        <ele>1215.07</ele>
        <time>2020-12-18T15:15:56.000Z</time>
      </trkpt>
      <trkpt lat="45.36121" lon="6.0816">
        <ele>1214.34</ele>
        <time>2020-12-18T15:16:06.000Z</time>
      </trkpt>
      <trkpt lat="45.36129" lon="6.08161">
        <ele>1207.16</ele>
        <time>2020-12-18T15:16:16.000Z</time>
      </trkpt>
      <trkpt lat="45.3614" lon="6.08158">
        <ele>1209</ele>
        <time>2020-12-18T15:16:26.000Z</time>
      </trkpt>
      <trkpt lat="45.36154" lon="6.08152">
        <ele>1208.69</ele>
        <time>2020-12-18T15:16:36.000Z</time>
      </trkpt>
      <trkpt lat="45.36167" lon="6.08154">
        <ele>1210.61</ele>
        <time>2020-12-18T15:16:46.000Z</time>
      </trkpt>
      <trkpt lat="45.36179" lon="6.08157">
        <ele>1208.42</ele>
        <time>2020-12-18T15:16:56.000Z</time>
      </trkpt>
      <trkpt lat="45.36187" lon="6.08156">
        <ele>1201.65</ele>
        <time>2020-12-18T15:17:06.000Z</time>
      </trkpt>
      <trkpt lat="45.36196" lon="6.0816">
        <ele>1202.85</ele>
        <time>2020-12-18T15:17:16.000Z</time>
      </trkpt>
      <trkpt lat="45.3621" lon="6.08158">
        <ele>1200.63</ele>
        <time>2020-12-18T15:17:26.000Z</time>
      </trkpt>
      <trkpt lat="45.36223" lon="6.08155">
        <ele>1202.3</ele>
        <time>2020-12-18T15:17:36.000Z</time>
      </trkpt>
      <trkpt lat="45.36238" lon="6.0816">
        <ele>1203.02</ele>
        <time>2020-12-18T15:17:46.000Z</time>
      </trkpt>
      <trkpt lat="45.36248" lon="6.0816">
        <ele>1200.64</ele>
        <time>2020-12-18T15:17:56.000Z</time>
      </trkpt>
      <trkpt lat="45.3626" lon="6.08167">
        <ele>1201.25</ele>
        <time>2020-12-18T15:18:06.000Z</time>
      </trkpt>
      <trkpt lat="45.36268" lon="6.0817">
        <ele>1193.66</ele>
        <time>2020-12-18T15:18:16.000Z</time>
      </trkpt>
      <trkpt lat="45.36273" lon="6.08171">
        <ele>1193.38</ele>
        <time>2020-12-18T15:18:26.000Z</time>
      </trkpt>
      <trkpt lat="45.36296" lon="6.08162">
        <ele>1192.3</ele>
        <time>2020-12-18T15:18:39.000Z</time>
      </trkpt>
      <trkpt lat="45.36305" lon="6.08175">
        <ele>1191.23</ele>
        <time>2020-12-18T15:18:49.000Z</time>
      </trkpt>
      <trkpt lat="45.36315" lon="6.08179">
        <ele>1185.84</ele>
        <time>2020-12-18T15:18:59.000Z</time>
      </trkpt>
      <trkpt lat="45.3633" lon="6.08171">
        <ele>1184.79</ele>
        <time>2020-12-18T15:19:09.000Z</time>
      </trkpt>
      <trkpt lat="45.36347" lon="6.08169">
        <ele>1182.28</ele>
        <time>2020-12-18T15:19:19.000Z</time>
      </trkpt>
      <trkpt lat="45.36363" lon="6.0817">
        <ele>1185.45</ele>
        <time>2020-12-18T15:19:29.000Z</time>
      </trkpt>
      <trkpt lat="45.36426" lon="6.08174">
        <ele>1182.17</ele>
        <time>2020-12-18T15:20:19.000Z</time>
      </trkpt>
      <trkpt lat="45.36448" lon="6.08173">
        <ele>1177.45</ele>
        <time>2020-12-18T15:20:33.000Z</time>
      </trkpt>
      <trkpt lat="45.36438" lon="6.08175">
        <ele>1177.97</ele>
        <time>2020-12-18T15:20:43.000Z</time>
      </trkpt>
      <trkpt lat="45.36451" lon="6.08176">
        <ele>1178.35</ele>
        <time>2020-12-18T15:20:53.000Z</time>
      </trkpt>
      <trkpt lat="45.3646" lon="6.08179">
        <ele>1177.72</ele>
        <time>2020-12-18T15:21:03.000Z</time>
      </trkpt>
      <trkpt lat="45.36475" lon="6.08183">
        <ele>1178.44</ele>
        <time>2020-12-18T15:21:19.000Z</time>
      </trkpt>
      <trkpt lat="45.36491" lon="6.08175">
        <ele>1173.27</ele>
        <time>2020-12-18T15:21:29.000Z</time>
      </trkpt>
      <trkpt lat="45.36494" lon="6.08174">
        <ele>1173.45</ele>
        <time>2020-12-18T15:21:39.000Z</time>
      </trkpt>
      <trkpt lat="45.3651" lon="6.08179">
        <ele>1176.51</ele>
        <time>2020-12-18T15:21:49.000Z</time>
      </trkpt>
      <trkpt lat="45.36646" lon="6.08178">
        <ele>1155.86</ele>
        <time>2020-12-18T15:23:24.000Z</time>
      </trkpt>
      <trkpt lat="45.36657" lon="6.08181">
        <ele>1155.25</ele>
        <time>2020-12-18T15:23:35.000Z</time>
      </trkpt>
      <trkpt lat="45.36673" lon="6.08175">
        <ele>1155.74</ele>
        <time>2020-12-18T15:23:45.000Z</time>
      </trkpt>
      <trkpt lat="45.36683" lon="6.08178">
        <ele>1150.09</ele>
        <time>2020-12-18T15:23:55.000Z</time>
      </trkpt>
      <trkpt lat="45.36732" lon="6.08163">
        <ele>1150.32</ele>
        <time>2020-12-18T15:24:30.000Z</time>
      </trkpt>
      <trkpt lat="45.3675" lon="6.08167">
        <ele>1151.06</ele>
        <time>2020-12-18T15:24:40.000Z</time>
      </trkpt>
      <trkpt lat="45.36764" lon="6.0816">
        <ele>1149.77</ele>
        <time>2020-12-18T15:24:50.000Z</time>
      </trkpt>
      <trkpt lat="45.3682" lon="6.08132">
        <ele>1142.67</ele>
        <time>2020-12-18T15:25:31.000Z</time>
      </trkpt>
      <trkpt lat="45.36854" lon="6.08124">
        <ele>1138.49</ele>
        <time>2020-12-18T15:25:48.000Z</time>
      </trkpt>
      <trkpt lat="45.36843" lon="6.08134">
        <ele>1136.7</ele>
        <time>2020-12-18T15:25:58.000Z</time>
      </trkpt>
      <trkpt lat="45.3684" lon="6.08131">
        <ele>1129.03</ele>
        <time>2020-12-18T15:26:08.000Z</time>
      </trkpt>
      <trkpt lat="45.36841" lon="6.0813">
        <ele>1126.98</ele>
        <time>2020-12-18T15:26:28.000Z</time>
      </trkpt>
      <trkpt lat="45.36859" lon="6.08124">
        <ele>1131.21</ele>
        <time>2020-12-18T15:26:38.000Z</time>
      </trkpt>
      <trkpt lat="45.36873" lon="6.08115">
        <ele>1136.2</ele>
        <time>2020-12-18T15:26:48.000Z</time>
      </trkpt>
      <trkpt lat="45.3688" lon="6.08098">
        <ele>1139.9</ele>
        <time>2020-12-18T15:26:58.000Z</time>
      </trkpt>
      <trkpt lat="45.36888" lon="6.08083">
        <ele>1137.93</ele>
        <time>2020-12-18T15:27:08.000Z</time>
      </trkpt>
      <trkpt lat="45.36904" lon="6.08092">
        <ele>1137.05</ele>
        <time>2020-12-18T15:27:18.000Z</time>
      </trkpt>
      <trkpt lat="45.36913" lon="6.08087">
        <ele>1130.15</ele>
        <time>2020-12-18T15:27:28.000Z</time>
      </trkpt>
      <trkpt lat="45.36919" lon="6.08065">
        <ele>1135.55</ele>
        <time>2020-12-18T15:27:38.000Z</time>
      </trkpt>
      <trkpt lat="45.36929" lon="6.0806">
        <ele>1137.64</ele>
        <time>2020-12-18T15:27:48.000Z</time>
      </trkpt>
      <trkpt lat="45.36934" lon="6.08043">
        <ele>1138.52</ele>
        <time>2020-12-18T15:27:58.000Z</time>
      </trkpt>
      <trkpt lat="45.36936" lon="6.08037">
        <ele>1138.88</ele>
        <time>2020-12-18T15:28:08.000Z</time>
      </trkpt>
      <trkpt lat="45.36939" lon="6.08043">
        <ele>1139.99</ele>
        <time>2020-12-18T15:28:18.000Z</time>
      </trkpt>
      <trkpt lat="45.36944" lon="6.08055">
        <ele>1141.91</ele>
        <time>2020-12-18T15:28:28.000Z</time>
      </trkpt>
      <trkpt lat="45.36953" lon="6.08069">
        <ele>1140.6</ele>
        <time>2020-12-18T15:28:38.000Z</time>
      </trkpt>
      <trkpt lat="45.36958" lon="6.0808">
        <ele>1137.97</ele>
        <time>2020-12-18T15:28:48.000Z</time>
      </trkpt>
      <trkpt lat="45.36969" lon="6.08091">
        <ele>1139.53</ele>
        <time>2020-12-18T15:28:58.000Z</time>
      </trkpt>
      <trkpt lat="45.36966" lon="6.08092">
        <ele>1140.02</ele>
        <time>2020-12-18T15:29:08.000Z</time>
      </trkpt>
      <trkpt lat="45.36968" lon="6.08094">
        <ele>1140.23</ele>
        <time>2020-12-18T15:29:18.000Z</time>
      </trkpt>
      <trkpt lat="45.36969" lon="6.08095">
        <ele>1141.23</ele>
        <time>2020-12-18T15:29:36.000Z</time>
      </trkpt>
      <trkpt lat="45.3698" lon="6.08107">
        <ele>1134.57</ele>
        <time>2020-12-18T15:29:46.000Z</time>
      </trkpt>
      <trkpt lat="45.36989" lon="6.08119">
        <ele>1137.79</ele>
        <time>2020-12-18T15:29:56.000Z</time>
      </trkpt>
      <trkpt lat="45.36993" lon="6.08128">
        <ele>1137.41</ele>
        <time>2020-12-18T15:30:06.000Z</time>
      </trkpt>
      <trkpt lat="45.37003" lon="6.08141">
        <ele>1133.69</ele>
        <time>2020-12-18T15:30:16.000Z</time>
      </trkpt>
      <trkpt lat="45.37012" lon="6.08158">
        <ele>1137.62</ele>
        <time>2020-12-18T15:30:26.000Z</time>
      </trkpt>
      <trkpt lat="45.37019" lon="6.0817">
        <ele>1134.61</ele>
        <time>2020-12-18T15:30:36.000Z</time>
      </trkpt>
      <trkpt lat="45.37023" lon="6.08184">
        <ele>1132.76</ele>
        <time>2020-12-18T15:30:46.000Z</time>
      </trkpt>
      <trkpt lat="45.37037" lon="6.08204">
        <ele>1134.88</ele>
        <time>2020-12-18T15:30:56.000Z</time>
      </trkpt>
      <trkpt lat="45.37036" lon="6.08225">
        <ele>1135.05</ele>
        <time>2020-12-18T15:31:06.000Z</time>
      </trkpt>
      <trkpt lat="45.37054" lon="6.08229">
        <ele>1138.46</ele>
        <time>2020-12-18T15:31:16.000Z</time>
      </trkpt>
      <trkpt lat="45.37059" lon="6.08241">
        <ele>1139.63</ele>
        <time>2020-12-18T15:31:26.000Z</time>
      </trkpt>
      <trkpt lat="45.37052" lon="6.08253">
        <ele>1132.2</ele>
        <time>2020-12-18T15:31:36.000Z</time>
      </trkpt>
      <trkpt lat="45.37056" lon="6.08262">
        <ele>1130.71</ele>
        <time>2020-12-18T15:31:46.000Z</time>
      </trkpt>
      <trkpt lat="45.37061" lon="6.08278">
        <ele>1131.2</ele>
        <time>2020-12-18T15:31:56.000Z</time>
      </trkpt>
      <trkpt lat="45.37064" lon="6.08293">
        <ele>1129</ele>
        <time>2020-12-18T15:32:06.000Z</time>
      </trkpt>
      <trkpt lat="45.37068" lon="6.08299">
        <ele>1124.07</ele>
        <time>2020-12-18T15:32:17.000Z</time>
      </trkpt>
      <trkpt lat="45.37062" lon="6.08295">
        <ele>1122.08</ele>
        <time>2020-12-18T15:32:27.000Z</time>
      </trkpt>
      <trkpt lat="45.37062" lon="6.08293">
        <ele>1121.35</ele>
        <time>2020-12-18T15:32:37.000Z</time>
      </trkpt>
      <trkpt lat="45.37059" lon="6.08294">
        <ele>1120.91</ele>
        <time>2020-12-18T15:32:47.000Z</time>
      </trkpt>
      <trkpt lat="45.37061" lon="6.08294">
        <ele>1119.84</ele>
        <time>2020-12-18T15:32:57.000Z</time>
      </trkpt>
      <trkpt lat="45.37062" lon="6.08294">
        <ele>1118.26</ele>
        <time>2020-12-18T15:34:48.000Z</time>
      </trkpt>
      <trkpt lat="45.37063" lon="6.08293">
        <ele>1116.41</ele>
        <time>2020-12-18T15:35:19.000Z</time>
      </trkpt>
      <trkpt lat="45.37064" lon="6.08294">
        <ele>1117.74</ele>
        <time>2020-12-18T15:35:57.000Z</time>
      </trkpt>
      <trkpt lat="45.37071" lon="6.08296">
        <ele>1121.09</ele>
        <time>2020-12-18T15:36:07.000Z</time>
      </trkpt>
      <trkpt lat="45.37088" lon="6.08298">
        <ele>1124.23</ele>
        <time>2020-12-18T15:36:17.000Z</time>
      </trkpt>
      <trkpt lat="45.371" lon="6.08297">
        <ele>1122.48</ele>
        <time>2020-12-18T15:36:27.000Z</time>
      </trkpt>
      <trkpt lat="45.37105" lon="6.08314">
        <ele>1123.09</ele>
        <time>2020-12-18T15:36:37.000Z</time>
      </trkpt>
      <trkpt lat="45.37118" lon="6.08323">
        <ele>1122.45</ele>
        <time>2020-12-18T15:36:47.000Z</time>
      </trkpt>
      <trkpt lat="45.3713" lon="6.08329">
        <ele>1122.04</ele>
        <time>2020-12-18T15:36:57.000Z</time>
      </trkpt>
      <trkpt lat="45.37141" lon="6.08335">
        <ele>1120.11</ele>
        <time>2020-12-18T15:37:07.000Z</time>
      </trkpt>
      <trkpt lat="45.37147" lon="6.08341">
        <ele>1118.19</ele>
        <time>2020-12-18T15:37:17.000Z</time>
      </trkpt>
      <trkpt lat="45.3716" lon="6.08346">
        <ele>1114.67</ele>
        <time>2020-12-18T15:37:27.000Z</time>
      </trkpt>
      <trkpt lat="45.37171" lon="6.08346">
        <ele>1117.93</ele>
        <time>2020-12-18T15:37:37.000Z</time>
      </trkpt>
      <trkpt lat="45.37183" lon="6.08349">
        <ele>1113.41</ele>
        <time>2020-12-18T15:37:47.000Z</time>
      </trkpt>
      <trkpt lat="45.37201" lon="6.0835">
        <ele>1110.49</ele>
        <time>2020-12-18T15:37:57.000Z</time>
      </trkpt>
      <trkpt lat="45.37216" lon="6.08353">
        <ele>1106.78</ele>
        <time>2020-12-18T15:38:07.000Z</time>
      </trkpt>
      <trkpt lat="45.37222" lon="6.08363">
        <ele>1107.03</ele>
        <time>2020-12-18T15:38:17.000Z</time>
      </trkpt>
      <trkpt lat="45.37234" lon="6.08365">
        <ele>1104.94</ele>
        <time>2020-12-18T15:38:27.000Z</time>
      </trkpt>
      <trkpt lat="45.37248" lon="6.08364">
        <ele>1106.9</ele>
        <time>2020-12-18T15:38:37.000Z</time>
      </trkpt>
      <trkpt lat="45.37245" lon="6.08368">
        <ele>1106.05</ele>
        <time>2020-12-18T15:38:47.000Z</time>
      </trkpt>
      <trkpt lat="45.37254" lon="6.08371">
        <ele>1109.73</ele>
        <time>2020-12-18T15:38:57.000Z</time>
      </trkpt>
      <trkpt lat="45.3726" lon="6.08381">
        <ele>1105.32</ele>
        <time>2020-12-18T15:39:07.000Z</time>
      </trkpt>
      <trkpt lat="45.37269" lon="6.08388">
        <ele>1106.42</ele>
        <time>2020-12-18T15:39:17.000Z</time>
      </trkpt>
      <trkpt lat="45.37286" lon="6.08389">
        <ele>1107.96</ele>
        <time>2020-12-18T15:39:27.000Z</time>
      </trkpt>
      <trkpt lat="45.37297" lon="6.08394">
        <ele>1107.2</ele>
        <time>2020-12-18T15:39:37.000Z</time>
      </trkpt>
      <trkpt lat="45.37308" lon="6.08385">
        <ele>1106.92</ele>
        <time>2020-12-18T15:39:48.000Z</time>
      </trkpt>
      <trkpt lat="45.37312" lon="6.0839">
        <ele>1104.57</ele>
        <time>2020-12-18T15:39:59.000Z</time>
      </trkpt>
      <trkpt lat="45.37317" lon="6.08394">
        <ele>1093.5</ele>
        <time>2020-12-18T15:40:09.000Z</time>
      </trkpt>
      <trkpt lat="45.37316" lon="6.08399">
        <ele>1094.44</ele>
        <time>2020-12-18T15:40:19.000Z</time>
      </trkpt>
      <trkpt lat="45.37317" lon="6.08401">
        <ele>1095.42</ele>
        <time>2020-12-18T15:40:29.000Z</time>
      </trkpt>
      <trkpt lat="45.37316" lon="6.08406">
        <ele>1093.35</ele>
        <time>2020-12-18T15:40:39.000Z</time>
      </trkpt>
      <trkpt lat="45.37315" lon="6.08408">
        <ele>1094.92</ele>
        <time>2020-12-18T15:40:49.000Z</time>
      </trkpt>
      <trkpt lat="45.37314" lon="6.08408">
        <ele>1094.81</ele>
        <time>2020-12-18T15:41:01.000Z</time>
      </trkpt>
      <trkpt lat="45.37316" lon="6.08407">
        <ele>1095.21</ele>
        <time>2020-12-18T15:41:11.000Z</time>
      </trkpt>
      <trkpt lat="45.37315" lon="6.08404">
        <ele>1094.91</ele>
        <time>2020-12-18T15:41:23.000Z</time>
      </trkpt>
      <trkpt lat="45.37309" lon="6.08375">
        <ele>1081.81</ele>
        <time>2020-12-18T15:41:33.000Z</time>
      </trkpt>
      <trkpt lat="45.3731" lon="6.08359">
        <ele>1081.56</ele>
        <time>2020-12-18T15:41:46.000Z</time>
      </trkpt>
      <trkpt lat="45.37314" lon="6.08356">
        <ele>1081.09</ele>
        <time>2020-12-18T15:41:56.000Z</time>
      </trkpt>
      <trkpt lat="45.37316" lon="6.08355">
        <ele>1079.52</ele>
        <time>2020-12-18T15:42:06.000Z</time>
      </trkpt>
      <trkpt lat="45.37316" lon="6.08349">
        <ele>1079.81</ele>
        <time>2020-12-18T15:42:32.000Z</time>
      </trkpt>
      <trkpt lat="45.37353" lon="6.08267">
        <ele>1060.18</ele>
        <time>2020-12-18T15:43:03.000Z</time>
      </trkpt>
      <trkpt lat="45.37358" lon="6.08247">
        <ele>1056.17</ele>
        <time>2020-12-18T15:43:28.000Z</time>
      </trkpt>
      <trkpt lat="45.37355" lon="6.08244">
        <ele>1057.16</ele>
        <time>2020-12-18T15:43:38.000Z</time>
      </trkpt>
      <trkpt lat="45.37354" lon="6.0824">
        <ele>1056.49</ele>
        <time>2020-12-18T15:43:48.000Z</time>
      </trkpt>
      <trkpt lat="45.37357" lon="6.08237">
        <ele>1055.85</ele>
        <time>2020-12-18T15:44:27.000Z</time>
      </trkpt>
      <trkpt lat="45.37377" lon="6.08232">
        <ele>1057.67</ele>
        <time>2020-12-18T15:44:37.000Z</time>
      </trkpt>
      <trkpt lat="45.3739" lon="6.08209">
        <ele>1056.15</ele>
        <time>2020-12-18T15:44:47.000Z</time>
      </trkpt>
      <trkpt lat="45.37404" lon="6.08199">
        <ele>1056.98</ele>
        <time>2020-12-18T15:44:57.000Z</time>
      </trkpt>
      <trkpt lat="45.37415" lon="6.08198">
        <ele>1055.93</ele>
        <time>2020-12-18T15:45:07.000Z</time>
      </trkpt>
      <trkpt lat="45.37427" lon="6.08195">
        <ele>1049.46</ele>
        <time>2020-12-18T15:45:17.000Z</time>
      </trkpt>
      <trkpt lat="45.3744" lon="6.08188">
        <ele>1048.8</ele>
        <time>2020-12-18T15:45:27.000Z</time>
      </trkpt>
      <trkpt lat="45.37454" lon="6.08184">
        <ele>1049.48</ele>
        <time>2020-12-18T15:45:37.000Z</time>
      </trkpt>
      <trkpt lat="45.3745" lon="6.08176">
        <ele>1048.8</ele>
        <time>2020-12-18T15:45:47.000Z</time>
      </trkpt>
      <trkpt lat="45.37449" lon="6.08162">
        <ele>1046.13</ele>
        <time>2020-12-18T15:45:57.000Z</time>
      </trkpt>
      <trkpt lat="45.37447" lon="6.08169">
        <ele>1039.28</ele>
        <time>2020-12-18T15:46:07.000Z</time>
      </trkpt>
      <trkpt lat="45.3745" lon="6.08172">
        <ele>1036.12</ele>
        <time>2020-12-18T15:46:17.000Z</time>
      </trkpt>
      <trkpt lat="45.3745" lon="6.0817">
        <ele>1034.73</ele>
        <time>2020-12-18T15:46:27.000Z</time>
      </trkpt>
      <trkpt lat="45.37452" lon="6.08171">
        <ele>1033.87</ele>
        <time>2020-12-18T15:47:06.000Z</time>
      </trkpt>
      <trkpt lat="45.3747" lon="6.08194">
        <ele>1029.44</ele>
        <time>2020-12-18T15:47:16.000Z</time>
      </trkpt>
      <trkpt lat="45.37485" lon="6.0821">
        <ele>1024.13</ele>
        <time>2020-12-18T15:47:26.000Z</time>
      </trkpt>
      <trkpt lat="45.37488" lon="6.0822">
        <ele>1020.37</ele>
        <time>2020-12-18T15:47:36.000Z</time>
      </trkpt>
      <trkpt lat="45.37484" lon="6.0824">
        <ele>1017.8</ele>
        <time>2020-12-18T15:47:46.000Z</time>
      </trkpt>
      <trkpt lat="45.37485" lon="6.08248">
        <ele>1016.79</ele>
        <time>2020-12-18T15:47:56.000Z</time>
      </trkpt>
      <trkpt lat="45.37489" lon="6.08251">
        <ele>1014.74</ele>
        <time>2020-12-18T15:48:11.000Z</time>
      </trkpt>
      <trkpt lat="45.37495" lon="6.08253">
        <ele>1012.45</ele>
        <time>2020-12-18T15:48:21.000Z</time>
      </trkpt>
      <trkpt lat="45.37498" lon="6.08253">
        <ele>1012.95</ele>
        <time>2020-12-18T15:48:31.000Z</time>
      </trkpt>
      <trkpt lat="45.37499" lon="6.08252">
        <ele>1012.55</ele>
        <time>2020-12-18T15:48:41.000Z</time>
      </trkpt>
      <trkpt lat="45.37506" lon="6.08246">
        <ele>1018.09</ele>
        <time>2020-12-18T15:48:51.000Z</time>
      </trkpt>
      <trkpt lat="45.37519" lon="6.08254">
        <ele>1012.16</ele>
        <time>2020-12-18T15:49:01.000Z</time>
      </trkpt>
      <trkpt lat="45.37541" lon="6.08247">
        <ele>1003.09</ele>
        <time>2020-12-18T15:49:11.000Z</time>
      </trkpt>
      <trkpt lat="45.37535" lon="6.08237">
        <ele>998.15</ele>
        <time>2020-12-18T15:49:21.000Z</time>
      </trkpt>
      <trkpt lat="45.37537" lon="6.0822">
        <ele>998.34</ele>
        <time>2020-12-18T15:49:31.000Z</time>
      </trkpt>
      <trkpt lat="45.37535" lon="6.08203">
        <ele>992.86</ele>
        <time>2020-12-18T15:49:41.000Z</time>
      </trkpt>
      <trkpt lat="45.3754" lon="6.08193">
        <ele>990.53</ele>
        <time>2020-12-18T15:49:51.000Z</time>
      </trkpt>
      <trkpt lat="45.37549" lon="6.08171">
        <ele>989.86</ele>
        <time>2020-12-18T15:50:01.000Z</time>
      </trkpt>
      <trkpt lat="45.37557" lon="6.08153">
        <ele>990.41</ele>
        <time>2020-12-18T15:50:11.000Z</time>
      </trkpt>
      <trkpt lat="45.37553" lon="6.0813">
        <ele>988.87</ele>
        <time>2020-12-18T15:50:21.000Z</time>
      </trkpt>
      <trkpt lat="45.37557" lon="6.08121">
        <ele>988.42</ele>
        <time>2020-12-18T15:50:31.000Z</time>
      </trkpt>
      <trkpt lat="45.37569" lon="6.08104">
        <ele>994.08</ele>
        <time>2020-12-18T15:50:41.000Z</time>
      </trkpt>
      <trkpt lat="45.37576" lon="6.081">
        <ele>988.3</ele>
        <time>2020-12-18T15:50:51.000Z</time>
      </trkpt>
      <trkpt lat="45.37582" lon="6.08093">
        <ele>983.12</ele>
        <time>2020-12-18T15:51:01.000Z</time>
      </trkpt>
      <trkpt lat="45.37585" lon="6.08095">
        <ele>977.66</ele>
        <time>2020-12-18T15:51:11.000Z</time>
      </trkpt>
      <trkpt lat="45.37587" lon="6.08083">
        <ele>973.03</ele>
        <time>2020-12-18T15:51:21.000Z</time>
      </trkpt>
      <trkpt lat="45.37587" lon="6.08069">
        <ele>969.32</ele>
        <time>2020-12-18T15:51:31.000Z</time>
      </trkpt>
      <trkpt lat="45.37589" lon="6.08065">
        <ele>965.66</ele>
        <time>2020-12-18T15:51:41.000Z</time>
      </trkpt>
      <trkpt lat="45.3759" lon="6.08064">
        <ele>965.06</ele>
        <time>2020-12-18T15:51:51.000Z</time>
      </trkpt>
      <trkpt lat="45.37591" lon="6.08062">
        <ele>965.89</ele>
        <time>2020-12-18T15:52:01.000Z</time>
      </trkpt>
      <trkpt lat="45.37598" lon="6.08048">
        <ele>960.85</ele>
        <time>2020-12-18T15:52:11.000Z</time>
      </trkpt>
      <trkpt lat="45.37603" lon="6.08029">
        <ele>962.39</ele>
        <time>2020-12-18T15:52:21.000Z</time>
      </trkpt>
      <trkpt lat="45.37607" lon="6.08006">
        <ele>962.22</ele>
        <time>2020-12-18T15:52:31.000Z</time>
      </trkpt>
      <trkpt lat="45.37606" lon="6.07993">
        <ele>958.77</ele>
        <time>2020-12-18T15:52:41.000Z</time>
      </trkpt>
      <trkpt lat="45.37605" lon="6.0798">
        <ele>953.61</ele>
        <time>2020-12-18T15:52:51.000Z</time>
      </trkpt>
      <trkpt lat="45.37609" lon="6.07963">
        <ele>953.14</ele>
        <time>2020-12-18T15:53:01.000Z</time>
      </trkpt>
      <trkpt lat="45.37615" lon="6.07957">
        <ele>949.17</ele>
        <time>2020-12-18T15:53:11.000Z</time>
      </trkpt>
      <trkpt lat="45.37637" lon="6.07936">
        <ele>945.83</ele>
        <time>2020-12-18T15:53:35.000Z</time>
      </trkpt>
      <trkpt lat="45.37646" lon="6.0793">
        <ele>942.39</ele>
        <time>2020-12-18T15:53:45.000Z</time>
      </trkpt>
      <trkpt lat="45.37656" lon="6.0792">
        <ele>940.49</ele>
        <time>2020-12-18T15:53:55.000Z</time>
      </trkpt>
      <trkpt lat="45.37657" lon="6.07906">
        <ele>933.94</ele>
        <time>2020-12-18T15:54:05.000Z</time>
      </trkpt>
      <trkpt lat="45.37664" lon="6.07887">
        <ele>926.89</ele>
        <time>2020-12-18T15:54:15.000Z</time>
      </trkpt>
      <trkpt lat="45.37669" lon="6.07879">
        <ele>925.91</ele>
        <time>2020-12-18T15:54:25.000Z</time>
      </trkpt>
      <trkpt lat="45.37674" lon="6.07875">
        <ele>925.49</ele>
        <time>2020-12-18T15:54:35.000Z</time>
      </trkpt>
      <trkpt lat="45.37689" lon="6.07878">
        <ele>925.43</ele>
        <time>2020-12-18T15:54:45.000Z</time>
      </trkpt>
      <trkpt lat="45.37708" lon="6.0787">
        <ele>923.58</ele>
        <time>2020-12-18T15:54:55.000Z</time>
      </trkpt>
      <trkpt lat="45.37713" lon="6.07862">
        <ele>918.26</ele>
        <time>2020-12-18T15:55:05.000Z</time>
      </trkpt>
      <trkpt lat="45.37726" lon="6.07843">
        <ele>921.39</ele>
        <time>2020-12-18T15:55:21.000Z</time>
      </trkpt>
      <trkpt lat="45.37727" lon="6.07832">
        <ele>917.69</ele>
        <time>2020-12-18T15:55:31.000Z</time>
      </trkpt>
      <trkpt lat="45.37728" lon="6.07834">
        <ele>917.32</ele>
        <time>2020-12-18T15:55:41.000Z</time>
      </trkpt>
      <trkpt lat="45.37732" lon="6.07834">
        <ele>916.8</ele>
        <time>2020-12-18T15:55:51.000Z</time>
      </trkpt>
      <trkpt lat="45.37725" lon="6.07849">
        <ele>916.95</ele>
        <time>2020-12-18T15:56:01.000Z</time>
      </trkpt>
      <trkpt lat="45.37721" lon="6.07872">
        <ele>910.37</ele>
        <time>2020-12-18T15:56:11.000Z</time>
      </trkpt>
      <trkpt lat="45.37712" lon="6.07893">
        <ele>907.06</ele>
        <time>2020-12-18T15:56:21.000Z</time>
      </trkpt>
      <trkpt lat="45.3772" lon="6.07896">
        <ele>904.23</ele>
        <time>2020-12-18T15:56:31.000Z</time>
      </trkpt>
      <trkpt lat="45.37728" lon="6.07877">
        <ele>903.13</ele>
        <time>2020-12-18T15:56:41.000Z</time>
      </trkpt>
      <trkpt lat="45.37736" lon="6.07867">
        <ele>901.04</ele>
        <time>2020-12-18T15:56:51.000Z</time>
      </trkpt>
      <trkpt lat="45.37749" lon="6.07853">
        <ele>899.12</ele>
        <time>2020-12-18T15:57:01.000Z</time>
      </trkpt>
      <trkpt lat="45.37755" lon="6.07841">
        <ele>893.74</ele>
        <time>2020-12-18T15:57:11.000Z</time>
      </trkpt>
      <trkpt lat="45.37772" lon="6.0783">
        <ele>897</ele>
        <time>2020-12-18T15:57:21.000Z</time>
      </trkpt>
      <trkpt lat="45.37781" lon="6.0783">
        <ele>892.92</ele>
        <time>2020-12-18T15:57:31.000Z</time>
      </trkpt>
      <trkpt lat="45.37794" lon="6.07818">
        <ele>897.48</ele>
        <time>2020-12-18T15:57:41.000Z</time>
      </trkpt>
      <trkpt lat="45.37809" lon="6.0781">
        <ele>897.55</ele>
        <time>2020-12-18T15:57:51.000Z</time>
      </trkpt>
      <trkpt lat="45.37825" lon="6.07787">
        <ele>887.78</ele>
        <time>2020-12-18T15:58:01.000Z</time>
      </trkpt>
      <trkpt lat="45.3783" lon="6.07778">
        <ele>886.31</ele>
        <time>2020-12-18T15:58:11.000Z</time>
      </trkpt>
      <trkpt lat="45.37838" lon="6.07774">
        <ele>890.07</ele>
        <time>2020-12-18T15:58:21.000Z</time>
      </trkpt>
      <trkpt lat="45.37855" lon="6.07765">
        <ele>893.41</ele>
        <time>2020-12-18T15:58:33.000Z</time>
      </trkpt>
      <trkpt lat="45.37867" lon="6.07755">
        <ele>896.03</ele>
        <time>2020-12-18T15:58:43.000Z</time>
      </trkpt>
      <trkpt lat="45.37878" lon="6.07743">
        <ele>894.36</ele>
        <time>2020-12-18T15:58:53.000Z</time>
      </trkpt>
      <trkpt lat="45.37886" lon="6.07729">
        <ele>895.92</ele>
        <time>2020-12-18T15:59:03.000Z</time>
      </trkpt>
      <trkpt lat="45.37896" lon="6.07719">
        <ele>894.74</ele>
        <time>2020-12-18T15:59:13.000Z</time>
      </trkpt>
      <trkpt lat="45.37907" lon="6.07707">
        <ele>895</ele>
        <time>2020-12-18T15:59:23.000Z</time>
      </trkpt>
      <trkpt lat="45.37922" lon="6.07705">
        <ele>893.03</ele>
        <time>2020-12-18T15:59:33.000Z</time>
      </trkpt>
      <trkpt lat="45.37934" lon="6.07708">
        <ele>889.5</ele>
        <time>2020-12-18T15:59:43.000Z</time>
      </trkpt>
      <trkpt lat="45.37947" lon="6.077">
        <ele>888.63</ele>
        <time>2020-12-18T15:59:53.000Z</time>
      </trkpt>
      <trkpt lat="45.37955" lon="6.07683">
        <ele>887.22</ele>
        <time>2020-12-18T16:00:03.000Z</time>
      </trkpt>
      <trkpt lat="45.37959" lon="6.07664">
        <ele>887.07</ele>
        <time>2020-12-18T16:00:13.000Z</time>
      </trkpt>
      <trkpt lat="45.37961" lon="6.0765">
        <ele>885.65</ele>
        <time>2020-12-18T16:00:23.000Z</time>
      </trkpt>
      <trkpt lat="45.37962" lon="6.07643">
        <ele>883.18</ele>
        <time>2020-12-18T16:00:33.000Z</time>
      </trkpt>
      <trkpt lat="45.37959" lon="6.07621">
        <ele>883.99</ele>
        <time>2020-12-18T16:00:43.000Z</time>
      </trkpt>
      <trkpt lat="45.37955" lon="6.07602">
        <ele>881.3</ele>
        <time>2020-12-18T16:00:53.000Z</time>
      </trkpt>
      <trkpt lat="45.3795" lon="6.07587">
        <ele>880.58</ele>
        <time>2020-12-18T16:01:03.000Z</time>
      </trkpt>
      <trkpt lat="45.37944" lon="6.0757">
        <ele>878.86</ele>
        <time>2020-12-18T16:01:13.000Z</time>
      </trkpt>
      <trkpt lat="45.37935" lon="6.07558">
        <ele>876.97</ele>
        <time>2020-12-18T16:01:23.000Z</time>
      </trkpt>
      <trkpt lat="45.3793" lon="6.07541">
        <ele>875.52</ele>
        <time>2020-12-18T16:01:33.000Z</time>
      </trkpt>
      <trkpt lat="45.37923" lon="6.07527">
        <ele>874.86</ele>
        <time>2020-12-18T16:01:43.000Z</time>
      </trkpt>
      <trkpt lat="45.37917" lon="6.07504">
        <ele>876.5</ele>
        <time>2020-12-18T16:01:53.000Z</time>
      </trkpt>
      <trkpt lat="45.37924" lon="6.07484">
        <ele>876.66</ele>
        <time>2020-12-18T16:02:03.000Z</time>
      </trkpt>
      <trkpt lat="45.37936" lon="6.07472">
        <ele>876.3</ele>
        <time>2020-12-18T16:02:13.000Z</time>
      </trkpt>
      <trkpt lat="45.3795" lon="6.07466">
        <ele>874.68</ele>
        <time>2020-12-18T16:02:23.000Z</time>
      </trkpt>
      <trkpt lat="45.37962" lon="6.07464">
        <ele>871.95</ele>
        <time>2020-12-18T16:02:33.000Z</time>
      </trkpt>
      <trkpt lat="45.3797" lon="6.07472">
        <ele>875.7</ele>
        <time>2020-12-18T16:02:43.000Z</time>
      </trkpt>
      <trkpt lat="45.37979" lon="6.07484">
        <ele>875.2</ele>
        <time>2020-12-18T16:02:53.000Z</time>
      </trkpt>
      <trkpt lat="45.37978" lon="6.07494">
        <ele>874.07</ele>
        <time>2020-12-18T16:03:03.000Z</time>
      </trkpt>
      <trkpt lat="45.37977" lon="6.07494">
        <ele>872.26</ele>
        <time>2020-12-18T16:03:13.000Z</time>
      </trkpt>
      <trkpt lat="45.37977" lon="6.07495">
        <ele>878.52</ele>
        <time>2020-12-18T16:04:44.000Z</time>
      </trkpt>
      <trkpt lat="45.37977" lon="6.07495">
        <ele>879.52</ele>
        <time>2020-12-18T16:04:45.000Z</time>
      </trkpt>
    </trkseg>
  </trk>
</gpx>